Observation data for South Plains 3ENE on 08/14/2019      Previous  Date  Next       Current Mesonet Observations  Soil Data  Daily Summary Page  Observations in Plain Language
KSP2 140500Z 07005KT 23/19 A3015 RMK A01 T02320186  RH  075%=      5-min Rain = 0
KSP2 140501Z 07005KT 23/19 A3015 RMK A01 T02320186  RH  075%=      5-min Rain = 0
KSP2 140502Z 07005KT 23/19 A3015 RMK A01 T02310186  RH  075%=      5-min Rain = 0
KSP2 140503Z 07006KT 23/19 A3015 RMK A01 T02310186  RH  076%=      5-min Rain = 0
KSP2 140504Z 07005KT 23/19 A3015 RMK A01 T02310186  RH  076%=      5-min Rain = 0
KSP2 140505Z 07004KT 23/19 A3015 RMK A01 T02310186  RH  076%=      5-min Rain = 0
KSP2 140506Z 07004KT 23/19 A3015 RMK A01 T02300187  RH  076%=      5-min Rain = 0
KSP2 140507Z 07004KT 23/19 A3015 RMK A01 T02300187  RH  076%=      5-min Rain = 0
KSP2 140508Z 08004KT 23/19 A3015 RMK A01 T02300187  RH  077%=      5-min Rain = 0
KSP2 140509Z 07004KT 23/19 A3015 RMK A01 T02290186  RH  077%=      5-min Rain = 0
KSP2 140510Z 07004KT 23/19 A3015 RMK A01 T02290186  RH  077%=      5-min Rain = 0
KSP2 140525Z 06006KT 23/19 A3015 RMK A01 T02260187  RH  078%=      5-min Rain = 0
KSP2 140526Z 06006KT 23/19 A3015 RMK A01 T02270187  RH  078%=      5-min Rain = 0
KSP2 140527Z 06005KT 23/19 A3015 RMK A01 T02270186  RH  078%=      5-min Rain = 0
KSP2 140528Z 05004KT 23/19 A3015 RMK A01 T02270186  RH  078%=      5-min Rain = 0
KSP2 140529Z 05005KT 23/19 A3015 RMK A01 T02270186  RH  078%=      5-min Rain = 0
KSP2 140530Z 05004KT 23/19 A3015 RMK A01 T02280186  RH  077%=      5-min Rain = 0
KSP2 140531Z 05004KT 23/19 A3015 RMK A01 T02280186  RH  077%=      5-min Rain = 0
KSP2 140532Z 06006KT 23/19 A3015 RMK A01 T02280186  RH  077%=      5-min Rain = 0
KSP2 140533Z 06005KT 23/19 A3015 RMK A01 T02290186  RH  077%=      5-min Rain = 0
KSP2 140534Z 05006KT 23/19 A3015 RMK A01 T02290186  RH  077%=      5-min Rain = 0
KSP2 140535Z 05006KT 23/19 A3015 RMK A01 T02300187  RH  077%=      5-min Rain = 0
KSP2 140536Z 05006KT 23/19 A3015 RMK A01 T02300187  RH  076%=      5-min Rain = 0
KSP2 140537Z 05007KT 23/19 A3015 RMK A01 T02310187  RH  076%=      5-min Rain = 0
KSP2 140538Z 05006KT 23/19 A3015 RMK A01 T02320187  RH  076%=      5-min Rain = 0
KSP2 140539Z 05006KT 23/19 A3015 RMK A01 T02320187  RH  076%=      5-min Rain = 0
KSP2 140540Z 05005KT 23/19 A3015 RMK A01 T02320188  RH  076%=      5-min Rain = 0
KSP2 140541Z 05006KT 23/19 A3015 RMK A01 T02330188  RH  076%=      5-min Rain = 0
KSP2 140542Z 05006KT 23/19 A3015 RMK A01 T02320188  RH  076%=      5-min Rain = 0
KSP2 140543Z 05007KT 23/19 A3015 RMK A01 T02320188  RH  076%=      5-min Rain = 0
KSP2 140544Z 06006KT 23/19 A3015 RMK A01 T02330188  RH  076%=      5-min Rain = 0
KSP2 140545Z 06007KT 23/19 A3015 RMK A01 T02330188  RH  076%=      5-min Rain = 0
KSP2 140546Z 06006KT 23/19 A3015 RMK A01 T02330188  RH  076%=      5-min Rain = 0
KSP2 140547Z 05006KT 23/19 A3015 RMK A01 T02330188  RH  076%=      5-min Rain = 0
KSP2 140548Z 05007KT 23/19 A3016 RMK A01 T02330188  RH  076%=      5-min Rain = 0
KSP2 140549Z 05006KT 23/19 A3016 RMK A01 T02340188  RH  076%=      5-min Rain = 0
KSP2 140550Z 05007KT 23/19 A3016 RMK A01 T02340188  RH  075%=      5-min Rain = 0
KSP2 140551Z 05006KT 23/19 A3016 RMK A01 T02340188  RH  075%=      5-min Rain = 0
KSP2 140552Z 05007KT 23/19 A3016 RMK A01 T02340188  RH  075%=      5-min Rain = 0
KSP2 140553Z 05008KT 23/19 A3016 RMK A01 T02340188  RH  075%=      5-min Rain = 0
KSP2 140554Z 05007KT 23/19 A3016 RMK A01 T02340189  RH  075%=      5-min Rain = 0
KSP2 140555Z 05007KT 24/19 A3016 RMK A01 T02350189  RH  075%=      5-min Rain = 0
KSP2 140556Z 05007KT 24/19 A3016 RMK A01 T02350188  RH  075%=      5-min Rain = 0
KSP2 140557Z 05009KT 24/19 A3016 RMK A01 T02350189  RH  075%=      5-min Rain = 0
KSP2 140558Z 05008KT 24/19 A3016 RMK A01 T02350188  RH  075%=      5-min Rain = 0
KSP2 140559Z 05008KT 24/19 A3017 RMK A01 T02360189  RH  075%=      5-min Rain = 0
KSP2 140600Z 04007KT 24/19 A3017 RMK A01 T02350188  RH  075%=      5-min Rain = 0
KSP2 140601Z 05008KT 24/19 A3017 RMK A01 T02350188  RH  075%=      5-min Rain = 0
KSP2 140602Z 05008KT 24/19 A3017 RMK A01 T02360189  RH  075%=      5-min Rain = 0
KSP2 140603Z 05008KT 24/19 A3017 RMK A01 T02350188  RH  075%=      5-min Rain = 0
KSP2 140604Z 05009KT 24/19 A3017 RMK A01 T02350188  RH  075%=      5-min Rain = 0
KSP2 140605Z 05008KT 24/19 A3017 RMK A01 T02350188  RH  075%=      5-min Rain = 0
KSP2 140606Z 05009KT 24/19 A3017 RMK A01 T02350188  RH  075%=      5-min Rain = 0
KSP2 140607Z 05009KT 24/19 A3017 RMK A01 T02350188  RH  075%=      5-min Rain = 0
KSP2 140608Z 05010KT 24/19 A3017 RMK A01 T02360188  RH  075%=      5-min Rain = 0
KSP2 140609Z 05008KT 24/19 A3017 RMK A01 T02350188  RH  075%=      5-min Rain = 0
KSP2 140610Z 05009KT 24/19 A3017 RMK A01 T02360188  RH  074%=      5-min Rain = 0
KSP2 140611Z 05009KT 24/19 A3018 RMK A01 T02360188  RH  074%=      5-min Rain = 0
KSP2 140612Z 05010KT 24/19 A3018 RMK A01 T02360188  RH  074%=      5-min Rain = 0
KSP2 140613Z 05009KT 24/19 A3018 RMK A01 T02360188  RH  074%=      5-min Rain = 0
KSP2 140614Z 05009KT 24/19 A3018 RMK A01 T02370188  RH  074%=      5-min Rain = 0
KSP2 140615Z 04009KT 24/19 A3018 RMK A01 T02370188  RH  074%=      5-min Rain = 0
KSP2 140616Z 05008KT 24/19 A3018 RMK A01 T02370187  RH  074%=      5-min Rain = 0
KSP2 140617Z 05009KT 24/19 A3018 RMK A01 T02370187  RH  074%=      5-min Rain = 0
KSP2 140618Z 04008KT 24/19 A3018 RMK A01 T02380188  RH  073%=      5-min Rain = 0
KSP2 140619Z 05007KT 24/19 A3018 RMK A01 T02380187  RH  073%=      5-min Rain = 0
KSP2 140620Z 05007KT 24/19 A3018 RMK A01 T02380187  RH  073%=      5-min Rain = 0
KSP2 140621Z 05008KT 24/19 A3018 RMK A01 T02380187  RH  073%=      5-min Rain = 0
KSP2 140622Z 05010KT 24/19 A3018 RMK A01 T02380187  RH  073%=      5-min Rain = 0
KSP2 140623Z 06008KT 24/19 A3018 RMK A01 T02380187  RH  073%=      5-min Rain = 0
KSP2 140624Z 06008KT 24/19 A3017 RMK A01 T02380187  RH  073%=      5-min Rain = 0
KSP2 140625Z 05007KT 24/19 A3017 RMK A01 T02380186  RH  073%=      5-min Rain = 0
KSP2 140626Z 06008KT 24/19 A3017 RMK A01 T02380187  RH  073%=      5-min Rain = 0
KSP2 140627Z 06008KT 24/19 A3017 RMK A01 T02380187  RH  073%=      5-min Rain = 0
KSP2 140628Z 05009KT 24/19 A3017 RMK A01 T02380186  RH  073%=      5-min Rain = 0
KSP2 140629Z 06008KT 24/19 A3017 RMK A01 T02380186  RH  073%=      5-min Rain = 0
KSP2 140630Z 06008KT 24/19 A3017 RMK A01 T02390186  RH  073%=      5-min Rain = 0
KSP2 140631Z 06009KT 24/19 A3017 RMK A01 T02380186  RH  072%=      5-min Rain = 0
KSP2 140632Z 06007KT 24/19 A3017 RMK A01 T02390186  RH  072%=      5-min Rain = 0
KSP2 140633Z 06008KT 24/19 A3017 RMK A01 T02390186  RH  072%=      5-min Rain = 0
KSP2 140634Z 06009KT 24/19 A3017 RMK A01 T02380186  RH  073%=      5-min Rain = 0
KSP2 140635Z 06009KT 24/19 A3017 RMK A01 T02380186  RH  073%=      5-min Rain = 0
KSP2 140636Z 06009KT 24/19 A3017 RMK A01 T02380186  RH  072%=      5-min Rain = 0
KSP2 140637Z 05010KT 24/19 A3017 RMK A01 T02380186  RH  072%=      5-min Rain = 0
KSP2 140638Z 05010KT 24/19 A3017 RMK A01 T02380186  RH  072%=      5-min Rain = 0
KSP2 140639Z 05009KT 24/19 A3017 RMK A01 T02380186  RH  072%=      5-min Rain = 0
KSP2 140640Z 05008KT 24/19 A3017 RMK A01 T02390186  RH  072%=      5-min Rain = 0
KSP2 140641Z 05009KT 24/19 A3017 RMK A01 T02390186  RH  072%=      5-min Rain = 0
KSP2 140642Z 05009KT 24/19 A3018 RMK A01 T02380186  RH  072%=      5-min Rain = 0
KSP2 140643Z 05011KT 24/19 A3018 RMK A01 T02380186  RH  072%=      5-min Rain = 0
KSP2 140644Z 05011KT 24/19 A3018 RMK A01 T02390186  RH  072%=      5-min Rain = 0
KSP2 140645Z 05009KT 24/19 A3018 RMK A01 T02400186  RH  072%=      5-min Rain = 0
KSP2 140646Z 05009KT 24/19 A3018 RMK A01 T02400186  RH  072%=      5-min Rain = 0
KSP2 140647Z 05010KT 24/19 A3018 RMK A01 T02390186  RH  072%=      5-min Rain = 0
KSP2 140648Z 05009KT 24/19 A3018 RMK A01 T02390186  RH  072%=      5-min Rain = 0
KSP2 140649Z 05010KT 24/19 A3017 RMK A01 T02390186  RH  072%=      5-min Rain = 0
KSP2 140650Z 05009KT 24/19 A3017 RMK A01 T02380186  RH  072%=      5-min Rain = 0
KSP2 140651Z 05010KT 24/19 A3017 RMK A01 T02380186  RH  073%=      5-min Rain = 0
KSP2 140652Z 05009KT 24/19 A3017 RMK A01 T02380186  RH  073%=      5-min Rain = 0
KSP2 140653Z 06009KT 24/19 A3017 RMK A01 T02380186  RH  073%=      5-min Rain = 0
KSP2 140654Z 06009KT 24/19 A3017 RMK A01 T02370186  RH  073%=      5-min Rain = 0
KSP2 140655Z 05009KT 24/19 A3017 RMK A01 T02380186  RH  073%=      5-min Rain = 0
KSP2 140656Z 05008KT 24/19 A3017 RMK A01 T02380186  RH  073%=      5-min Rain = 0
KSP2 140657Z 05009KT 24/19 A3017 RMK A01 T02370186  RH  073%=      5-min Rain = 0
KSP2 140658Z 05009KT 24/19 A3017 RMK A01 T02370186  RH  073%=      5-min Rain = 0
KSP2 140659Z 05008KT 24/19 A3018 RMK A01 T02370186  RH  073%=      5-min Rain = 0
KSP2 140700Z 05009KT 24/19 A3018 RMK A01 T02360186  RH  073%=      5-min Rain = 0
KSP2 140701Z 05007KT 24/19 A3018 RMK A01 T02360185  RH  073%=      5-min Rain = 0
KSP2 140702Z 05007KT 24/19 A3018 RMK A01 T02350185  RH  073%=      5-min Rain = 0
KSP2 140703Z 05008KT 24/19 A3018 RMK A01 T02350185  RH  074%=      5-min Rain = 0
KSP2 140704Z 05008KT 23/19 A3018 RMK A01 T02340185  RH  074%=      5-min Rain = 0
KSP2 140705Z 05007KT 23/19 A3018 RMK A01 T02340185  RH  074%=      5-min Rain = 0
KSP2 140706Z 05007KT 23/19 A3018 RMK A01 T02340185  RH  074%=      5-min Rain = 0
KSP2 140707Z 06008KT 23/19 A3018 RMK A01 T02340185  RH  074%=      5-min Rain = 0
KSP2 140708Z 05007KT 23/19 A3018 RMK A01 T02330185  RH  074%=      5-min Rain = 0
KSP2 140709Z 06007KT 23/19 A3018 RMK A01 T02330185  RH  074%=      5-min Rain = 0
KSP2 140710Z 06007KT 23/19 A3018 RMK A01 T02320185  RH  075%=      5-min Rain = 0
KSP2 140711Z 06008KT 23/19 A3018 RMK A01 T02320185  RH  075%=      5-min Rain = 0
KSP2 140712Z 06007KT 23/19 A3018 RMK A01 T02320185  RH  075%=      5-min Rain = 0
KSP2 140713Z 06007KT 23/18 A3017 RMK A01 T02310184  RH  075%=      5-min Rain = 0
KSP2 140714Z 06007KT 23/19 A3017 RMK A01 T02310185  RH  075%=      5-min Rain = 0
KSP2 140715Z 06007KT 23/19 A3017 RMK A01 T02320185  RH  075%=      5-min Rain = 0
KSP2 140716Z 06008KT 23/19 A3017 RMK A01 T02310185  RH  075%=      5-min Rain = 0
KSP2 140717Z 06008KT 23/19 A3017 RMK A01 T02310185  RH  075%=      5-min Rain = 0
KSP2 140718Z 06007KT 23/19 A3017 RMK A01 T02310185  RH  075%=      5-min Rain = 0
KSP2 140719Z 06007KT 23/19 A3017 RMK A01 T02310185  RH  075%=      5-min Rain = 0
KSP2 140720Z 07007KT 23/19 A3017 RMK A01 T02310185  RH  075%=      5-min Rain = 0
KSP2 140721Z 06007KT 23/19 A3017 RMK A01 T02300185  RH  075%=      5-min Rain = 0
KSP2 140722Z 06007KT 23/19 A3017 RMK A01 T02300185  RH  076%=      5-min Rain = 0
KSP2 140723Z 07007KT 23/19 A3017 RMK A01 T02300185  RH  076%=      5-min Rain = 0
KSP2 140724Z 07006KT 23/19 A3017 RMK A01 T02300185  RH  076%=      5-min Rain = 0
KSP2 140725Z 07007KT 23/19 A3017 RMK A01 T02290185  RH  076%=      5-min Rain = 0
KSP2 140726Z 07007KT 23/19 A3017 RMK A01 T02290185  RH  076%=      5-min Rain = 0
KSP2 140727Z 07006KT 23/19 A3017 RMK A01 T02280185  RH  076%=      5-min Rain = 0
KSP2 140728Z 07006KT 23/19 A3017 RMK A01 T02280185  RH  077%=      5-min Rain = 0
KSP2 140729Z 08006KT 23/19 A3016 RMK A01 T02270185  RH  077%=      5-min Rain = 0
KSP2 140730Z 08006KT 23/19 A3016 RMK A01 T02270185  RH  077%=      5-min Rain = 0
KSP2 140731Z 08007KT 23/18 A3016 RMK A01 T02270184  RH  077%=      5-min Rain = 0
KSP2 140732Z 07007KT 23/19 A3016 RMK A01 T02270185  RH  077%=      5-min Rain = 0
KSP2 140733Z 07006KT 23/19 A3016 RMK A01 T02270185  RH  077%=      5-min Rain = 0
KSP2 140734Z 07006KT 23/19 A3017 RMK A01 T02280185  RH  077%=      5-min Rain = 0
KSP2 140735Z 06007KT 23/19 A3017 RMK A01 T02270185  RH  077%=      5-min Rain = 0
KSP2 140736Z 06006KT 23/19 A3017 RMK A01 T02270185  RH  077%=      5-min Rain = 0
KSP2 140737Z 06006KT 23/19 A3017 RMK A01 T02270185  RH  077%=      5-min Rain = 0
KSP2 140738Z 06007KT 23/18 A3017 RMK A01 T02270184  RH  077%=      5-min Rain = 0
KSP2 140739Z 06005KT 23/19 A3017 RMK A01 T02270185  RH  077%=      5-min Rain = 0
KSP2 140740Z 05006KT 23/19 A3017 RMK A01 T02270185  RH  077%=      5-min Rain = 0
KSP2 140741Z 06006KT 23/19 A3016 RMK A01 T02260185  RH  078%=      5-min Rain = 0
KSP2 140742Z 07006KT 23/19 A3016 RMK A01 T02260185  RH  078%=      5-min Rain = 0
KSP2 140743Z 06006KT 23/19 A3016 RMK A01 T02260186  RH  078%=      5-min Rain = 0
KSP2 140744Z 07006KT 23/19 A3016 RMK A01 T02260186  RH  078%=      5-min Rain = 0
KSP2 140745Z 07007KT 23/19 A3016 RMK A01 T02260186  RH  078%=      5-min Rain = 0
KSP2 140746Z 07006KT 23/19 A3016 RMK A01 T02260186  RH  078%=      5-min Rain = 0
KSP2 140747Z 07006KT 23/19 A3016 RMK A01 T02260186  RH  078%=      5-min Rain = 0
KSP2 140748Z 07006KT 23/19 A3016 RMK A01 T02250185  RH  078%=      5-min Rain = 0
KSP2 140749Z 07006KT 23/19 A3016 RMK A01 T02260186  RH  078%=      5-min Rain = 0
KSP2 140750Z 07006KT 23/19 A3016 RMK A01 T02250186  RH  078%=      5-min Rain = 0
KSP2 140751Z 08006KT 23/19 A3016 RMK A01 T02250186  RH  079%=      5-min Rain = 0
KSP2 140752Z 08006KT 22/19 A3016 RMK A01 T02240186  RH  079%=      5-min Rain = 0
KSP2 140753Z 08006KT 22/19 A3016 RMK A01 T02240186  RH  079%=      5-min Rain = 0
KSP2 140754Z 08006KT 22/19 A3015 RMK A01 T02240186  RH  079%=      5-min Rain = 0
KSP2 140755Z 08005KT 22/19 A3015 RMK A01 T02240186  RH  079%=      5-min Rain = 0
KSP2 140756Z 08005KT 22/19 A3015 RMK A01 T02230186  RH  079%=      5-min Rain = 0
KSP2 140757Z 09004KT 22/19 A3015 RMK A01 T02230186  RH  079%=      5-min Rain = 0
KSP2 140758Z 08005KT 22/19 A3015 RMK A01 T02230186  RH  079%=      5-min Rain = 0
KSP2 140759Z 08005KT 22/19 A3015 RMK A01 T02230186  RH  079%=      5-min Rain = 0
KSP2 140800Z 07004KT 22/19 A3015 RMK A01 T02230186  RH  079%=      5-min Rain = 0
KSP2 140801Z 07008KT 22/19 A3015 RMK A01 T02230186  RH  080%=      5-min Rain = 0
KSP2 140802Z 07005KT 22/19 A3015 RMK A01 T02230186  RH  080%=      5-min Rain = 0
KSP2 140803Z 07005KT 22/19 A3015 RMK A01 T02240186  RH  079%=      5-min Rain = 0
KSP2 140804Z 07006KT 22/19 A3015 RMK A01 T02240186  RH  079%=      5-min Rain = 0
KSP2 140805Z 07005KT 22/19 A3015 RMK A01 T02230186  RH  079%=      5-min Rain = 0
KSP2 140806Z 07004KT 22/19 A3015 RMK A01 T02230186  RH  079%=      5-min Rain = 0
KSP2 140807Z 08004KT 22/19 A3015 RMK A01 T02220186  RH  080%=      5-min Rain = 0
KSP2 140808Z 08005KT 22/19 A3015 RMK A01 T02220186  RH  080%=      5-min Rain = 0
KSP2 140809Z 08004KT 22/19 A3015 RMK A01 T02210185  RH  080%=      5-min Rain = 0
KSP2 140810Z 08004KT 22/19 A3015 RMK A01 T02200185  RH  080%=      5-min Rain = 0
KSP2 140811Z 08005KT 22/19 A3015 RMK A01 T02200185  RH  081%=      5-min Rain = 0
KSP2 140812Z 07005KT 22/19 A3015 RMK A01 T02190185  RH  081%=      5-min Rain = 0
KSP2 140813Z 06006KT 22/19 A3015 RMK A01 T02190185  RH  081%=      5-min Rain = 0
KSP2 140814Z 03008KT 22/19 A3016 RMK A01 T02190185  RH  081%=      5-min Rain = 0
KSP2 140815Z 03011KT 22/19 A3016 RMK A01 T02180185  RH  082%=      5-min Rain = 0
KSP2 140816Z 03011KT 22/19 A3016 RMK A01 T02180185  RH  081%=      5-min Rain = 0
KSP2 140817Z 03012KT 22/18 A3016 RMK A01 T02180184  RH  081%=      5-min Rain = 0
KSP2 140818Z 03011KT 22/18 A3016 RMK A01 T02180184  RH  081%=      5-min Rain = 0
KSP2 140819Z 03013KT 22/18 A3016 RMK A01 T02180184  RH  081%=      5-min Rain = 0
KSP2 140820Z 03009KT 22/18 A3016 RMK A01 T02190184  RH  081%=      5-min Rain = 0
KSP2 140821Z 03012KT 22/19 A3016 RMK A01 T02200185  RH  080%=      5-min Rain = 0
KSP2 140822Z 03011KT 22/19 A3016 RMK A01 T02210185  RH  080%=      5-min Rain = 0
KSP2 140823Z 03010KT 22/19 A3016 RMK A01 T02220185  RH  080%=      5-min Rain = 0
KSP2 140824Z 03011KT 22/19 A3016 RMK A01 T02220185  RH  079%=      5-min Rain = 0
KSP2 140825Z 03012KT 22/19 A3016 RMK A01 T02220185  RH  079%=      5-min Rain = 0
KSP2 140826Z 04010KT 22/19 A3016 RMK A01 T02220185  RH  079%=      5-min Rain = 0
KSP2 140827Z 03010KT 22/19 A3016 RMK A01 T02220185  RH  079%=      5-min Rain = 0
KSP2 140828Z 03011KT 22/19 A3016 RMK A01 T02220185  RH  080%=      5-min Rain = 0
KSP2 140829Z 04009KT 22/19 A3016 RMK A01 T02220186  RH  080%=      5-min Rain = 0
KSP2 140830Z 03011KT 22/19 A3016 RMK A01 T02220185  RH  079%=      5-min Rain = 0
KSP2 140831Z 03009KT 22/19 A3016 RMK A01 T02220185  RH  080%=      5-min Rain = 0
KSP2 140832Z 03009KT 22/19 A3016 RMK A01 T02220185  RH  080%=      5-min Rain = 0
KSP2 140833Z 03009KT 22/19 A3016 RMK A01 T02220185  RH  080%=      5-min Rain = 0
KSP2 140834Z 03011KT 22/19 A3016 RMK A01 T02210185  RH  080%=      5-min Rain = 0
KSP2 140835Z 03008KT 22/19 A3016 RMK A01 T02210185  RH  080%=      5-min Rain = 0
KSP2 140836Z 03008KT 22/19 A3016 RMK A01 T02210185  RH  080%=      5-min Rain = 0
KSP2 140837Z 02010KT 22/18 A3016 RMK A01 T02210184  RH  080%=      5-min Rain = 0
KSP2 140838Z 02010KT 22/18 A3017 RMK A01 T02200184  RH  080%=      5-min Rain = 0
KSP2 140839Z 02011KT 22/18 A3017 RMK A01 T02200184  RH  080%=      5-min Rain = 0
KSP2 140840Z 03010KT 22/18 A3017 RMK A01 T02200184  RH  080%=      5-min Rain = 0
KSP2 140841Z 03011KT 22/18 A3017 RMK A01 T02200184  RH  080%=      5-min Rain = 0
KSP2 140842Z 03011KT 22/18 A3016 RMK A01 T02200184  RH  080%=      5-min Rain = 0
KSP2 140843Z 03009KT 22/18 A3016 RMK A01 T02200184  RH  080%=      5-min Rain = 0
KSP2 140844Z 03008KT 22/18 A3016 RMK A01 T02200184  RH  080%=      5-min Rain = 0
KSP2 140845Z 04010KT 22/18 A3016 RMK A01 T02200184  RH  080%=      5-min Rain = 0
KSP2 140846Z 04007KT 22/18 A3016 RMK A01 T02200183  RH  080%=      5-min Rain = 0
KSP2 140847Z 03009KT 22/18 A3016 RMK A01 T02190183  RH  080%=      5-min Rain = 0
KSP2 140848Z 04009KT 22/18 A3016 RMK A01 T02190183  RH  080%=      5-min Rain = 0
KSP2 140849Z 03009KT 22/18 A3016 RMK A01 T02190182  RH  080%=      5-min Rain = 0
KSP2 140850Z 03011KT 22/18 A3016 RMK A01 T02190182  RH  080%=      5-min Rain = 0
KSP2 140851Z 04010KT 22/18 A3016 RMK A01 T02190182  RH  079%=      5-min Rain = 0
KSP2 140852Z 04008KT 22/18 A3016 RMK A01 T02180181  RH  079%=      5-min Rain = 0
KSP2 140853Z 04008KT 22/18 A3016 RMK A01 T02180181  RH  080%=      5-min Rain = 0
KSP2 140854Z 03009KT 22/18 A3016 RMK A01 T02170181  RH  080%=      5-min Rain = 0
KSP2 140855Z 03010KT 22/18 A3016 RMK A01 T02170180  RH  080%=      5-min Rain = 0
KSP2 140856Z 03011G16KT 22/18 A3016 RMK A01 T02160179  RH  079%=      5-min Rain = 0
KSP2 140857Z 03012KT 22/18 A3016 RMK A01 T02160176  RH  078%=      5-min Rain = 0
KSP2 140858Z 03009KT 22/17 A3016 RMK A01 T02160174  RH  077%=      5-min Rain = 0
KSP2 140859Z 04011KT 22/17 A3016 RMK A01 T02160173  RH  076%=      5-min Rain = 0
KSP2 140900Z 03010KT 22/17 A3016 RMK A01 T02160172  RH  076%=      5-min Rain = 0
KSP2 140901Z 04010KT 22/17 A3016 RMK A01 T02150171  RH  076%=      5-min Rain = 0
KSP2 140902Z 04012KT 22/17 A3016 RMK A01 T02150171  RH  076%=      5-min Rain = 0
KSP2 140903Z 04009KT 21/17 A3017 RMK A01 T02140170  RH  076%=      5-min Rain = 0
KSP2 140904Z 04007KT 22/17 A3017 RMK A01 T02150170  RH  076%=      5-min Rain = 0
KSP2 140905Z 04010KT 21/17 A3017 RMK A01 T02140170  RH  076%=      5-min Rain = 0
KSP2 140906Z 03010KT 21/17 A3017 RMK A01 T02130170  RH  076%=      5-min Rain = 0
KSP2 140907Z 03010KT 21/17 A3017 RMK A01 T02130169  RH  076%=      5-min Rain = 0
KSP2 140908Z 03010KT 21/17 A3017 RMK A01 T02120169  RH  076%=      5-min Rain = 0
KSP2 140909Z 04008KT 21/17 A3017 RMK A01 T02120168  RH  076%=      5-min Rain = 0
KSP2 140910Z 04008KT 21/17 A3017 RMK A01 T02110168  RH  076%=      5-min Rain = 0
KSP2 140911Z 04008KT 21/17 A3017 RMK A01 T02110167  RH  076%=      5-min Rain = 0
KSP2 140912Z 04007KT 21/17 A3016 RMK A01 T02100167  RH  076%=      5-min Rain = 0
KSP2 140913Z 04007G12KT 21/17 A3017 RMK A01 T02100166  RH  076%=      5-min Rain = 0
KSP2 140914Z 04010KT 21/17 A3017 RMK A01 T02100165  RH  076%=      5-min Rain = 0
KSP2 140915Z 04008KT 21/16 A3017 RMK A01 T02090164  RH  075%=      5-min Rain = 0
KSP2 140916Z 04007KT 21/16 A3017 RMK A01 T02090163  RH  075%=      5-min Rain = 0
KSP2 140917Z 03008KT 21/16 A3017 RMK A01 T02080163  RH  075%=      5-min Rain = 0
KSP2 140918Z 04009KT 21/16 A3017 RMK A01 T02080163  RH  075%=      5-min Rain = 0
KSP2 140919Z 04008KT 21/16 A3017 RMK A01 T02070161  RH  075%=      5-min Rain = 0
KSP2 140920Z 04009G14KT 21/16 A3017 RMK A01 T02070160  RH  074%=      5-min Rain = 0
KSP2 140921Z 04010KT 21/16 A3017 RMK A01 T02070159  RH  074%=      5-min Rain = 0
KSP2 140922Z 04009KT 21/16 A3017 RMK A01 T02070158  RH  073%=      5-min Rain = 0
KSP2 140923Z 04008KT 21/16 A3017 RMK A01 T02070158  RH  073%=      5-min Rain = 0
KSP2 140924Z 04007KT 21/16 A3017 RMK A01 T02070158  RH  073%=      5-min Rain = 0
KSP2 140925Z 04008KT 21/16 A3017 RMK A01 T02060158  RH  074%=      5-min Rain = 0
KSP2 140926Z 03009KT 21/16 A3017 RMK A01 T02060157  RH  074%=      5-min Rain = 0
KSP2 140927Z 03010KT 21/16 A3017 RMK A01 T02050157  RH  074%=      5-min Rain = 0
KSP2 140928Z 04009KT 21/16 A3017 RMK A01 T02050156  RH  073%=      5-min Rain = 0
KSP2 140929Z 04008KT 20/16 A3018 RMK A01 T02040155  RH  073%=      5-min Rain = 0
KSP2 140930Z 04008KT 20/16 A3018 RMK A01 T02040155  RH  073%=      5-min Rain = 0
KSP2 140931Z 04008KT 20/15 A3018 RMK A01 T02040154  RH  073%=      5-min Rain = 0
KSP2 140932Z 04008KT 20/15 A3018 RMK A01 T02040154  RH  073%=      5-min Rain = 0
KSP2 140933Z 04008KT 20/15 A3018 RMK A01 T02030154  RH  073%=      5-min Rain = 0
KSP2 140934Z 04008KT 20/15 A3018 RMK A01 T02030153  RH  073%=      5-min Rain = 0
KSP2 140935Z 03007KT 20/15 A3018 RMK A01 T02020153  RH  073%=      5-min Rain = 0
KSP2 140936Z 03009KT 20/15 A3018 RMK A01 T02020153  RH  073%=      5-min Rain = 0
KSP2 140937Z 03009KT 20/15 A3018 RMK A01 T02020152  RH  073%=      5-min Rain = 0
KSP2 140938Z 04008KT 20/15 A3018 RMK A01 T02020152  RH  073%=      5-min Rain = 0
KSP2 140939Z 03009KT 20/15 A3019 RMK A01 T02020151  RH  073%=      5-min Rain = 0
KSP2 140940Z 03007KT 20/15 A3019 RMK A01 T02010151  RH  073%=      5-min Rain = 0
KSP2 140941Z 03008KT 20/15 A3019 RMK A01 T02010150  RH  073%=      5-min Rain = 0
KSP2 140942Z 04009KT 20/15 A3019 RMK A01 T02010150  RH  073%=      5-min Rain = 0
KSP2 140943Z 04009KT 20/15 A3019 RMK A01 T02000150  RH  073%=      5-min Rain = 0
KSP2 140944Z 03010KT 20/15 A3019 RMK A01 T02000149  RH  072%=      5-min Rain = 0
KSP2 140945Z 04009KT 20/15 A3019 RMK A01 T02000149  RH  072%=      5-min Rain = 0
KSP2 140946Z 03008KT 20/15 A3019 RMK A01 T02000148  RH  072%=      5-min Rain = 0
KSP2 140947Z 03010KT 20/15 A3019 RMK A01 T02000148  RH  072%=      5-min Rain = 0
KSP2 140948Z 03010KT 20/15 A3019 RMK A01 T02000148  RH  072%=      5-min Rain = 0
KSP2 140949Z 03010KT 20/15 A3019 RMK A01 T02000147  RH  071%=      5-min Rain = 0
KSP2 140950Z 03009KT 20/15 A3019 RMK A01 T02000147  RH  071%=      5-min Rain = 0
KSP2 140951Z 03010KT 20/15 A3019 RMK A01 T02000146  RH  071%=      5-min Rain = 0
KSP2 140952Z 04010KT 20/15 A3019 RMK A01 T02000145  RH  071%=      5-min Rain = 0
KSP2 140953Z 04009KT 20/14 A3019 RMK A01 T02000144  RH  070%=      5-min Rain = 0
KSP2 140954Z 04010KT 20/14 A3019 RMK A01 T02000144  RH  070%=      5-min Rain = 0
KSP2 140955Z 04008KT 20/14 A3019 RMK A01 T02000144  RH  070%=      5-min Rain = 0
KSP2 140956Z 04008KT 20/14 A3019 RMK A01 T01990144  RH  070%=      5-min Rain = 0
KSP2 140957Z 04009KT 20/14 A3019 RMK A01 T01990143  RH  070%=      5-min Rain = 0
KSP2 140958Z 04008KT 20/14 A3019 RMK A01 T01990143  RH  070%=      5-min Rain = 0
KSP2 140959Z 04009KT 20/14 A3019 RMK A01 T01980143  RH  071%=      5-min Rain = 0
KSP2 141000Z 04008KT 20/14 A3019 RMK A01 T01980143  RH  071%=      5-min Rain = 0
KSP2 141001Z 03008KT 20/14 A3019 RMK A01 T01970143  RH  071%=      5-min Rain = 0
KSP2 141002Z 04008KT 20/14 A3019 RMK A01 T01960143  RH  071%=      5-min Rain = 0
KSP2 141003Z 03007KT 20/14 A3019 RMK A01 T01960143  RH  071%=      5-min Rain = 0
KSP2 141004Z 04008KT 20/14 A3019 RMK A01 T01960143  RH  071%=      5-min Rain = 0
KSP2 141005Z 04009KT 20/14 A3019 RMK A01 T01960143  RH  071%=      5-min Rain = 0
KSP2 141006Z 03008KT 20/14 A3019 RMK A01 T01950142  RH  071%=      5-min Rain = 0
KSP2 141007Z 03007KT 20/14 A3019 RMK A01 T01950142  RH  071%=      5-min Rain = 0
KSP2 141008Z 03007KT 20/14 A3019 RMK A01 T01950142  RH  071%=      5-min Rain = 0
KSP2 141009Z 03007KT 20/14 A3019 RMK A01 T01950142  RH  072%=      5-min Rain = 0
KSP2 141010Z 02007KT 19/14 A3019 RMK A01 T01940142  RH  072%=      5-min Rain = 0
KSP2 141011Z 02007KT 19/14 A302 RMK A01 T01940142  RH  072%=      5-min Rain = 0
KSP2 141012Z 03006KT 19/14 A302 RMK A01 T01940142  RH  072%=      5-min Rain = 0
KSP2 141013Z 03006KT 19/14 A302 RMK A01 T01940142  RH  072%=      5-min Rain = 0
KSP2 141014Z 03007KT 19/14 A302 RMK A01 T01940142  RH  072%=      5-min Rain = 0
KSP2 141015Z 02007KT 19/14 A302 RMK A01 T01940142  RH  072%=      5-min Rain = 0
KSP2 141016Z 03006KT 19/14 A302 RMK A01 T01940142  RH  072%=      5-min Rain = 0
KSP2 141017Z 03007KT 19/14 A302 RMK A01 T01930141  RH  072%=      5-min Rain = 0
KSP2 141018Z 03007KT 19/14 A302 RMK A01 T01930142  RH  072%=      5-min Rain = 0
KSP2 141019Z 03007KT 19/14 A302 RMK A01 T01930142  RH  072%=      5-min Rain = 0
KSP2 141020Z 03008KT 19/14 A3021 RMK A01 T01930142  RH  072%=      5-min Rain = 0
KSP2 141021Z 02008KT 19/14 A3021 RMK A01 T01930141  RH  072%=      5-min Rain = 0
KSP2 141022Z 03007KT 19/14 A3021 RMK A01 T01930142  RH  072%=      5-min Rain = 0
KSP2 141023Z 03007KT 19/14 A3021 RMK A01 T01930141  RH  072%=      5-min Rain = 0
KSP2 141024Z 02006KT 19/14 A3021 RMK A01 T01930142  RH  072%=      5-min Rain = 0
KSP2 141025Z 03005KT 19/14 A3021 RMK A01 T01920141  RH  072%=      5-min Rain = 0
KSP2 141026Z 03005KT 19/14 A3021 RMK A01 T01920141  RH  072%=      5-min Rain = 0
KSP2 141027Z 03006KT 19/14 A3021 RMK A01 T01920141  RH  072%=      5-min Rain = 0
KSP2 141028Z 03007KT 19/14 A3021 RMK A01 T01920142  RH  073%=      5-min Rain = 0
KSP2 141029Z 03006KT 19/14 A3021 RMK A01 T01920141  RH  073%=      5-min Rain = 0
KSP2 141030Z 04005KT 19/14 A3021 RMK A01 T01920141  RH  072%=      5-min Rain = 0
KSP2 141031Z 03006KT 19/14 A3021 RMK A01 T01920141  RH  073%=      5-min Rain = 0
KSP2 141032Z 03007KT 19/14 A3021 RMK A01 T01910142  RH  073%=      5-min Rain = 0
KSP2 141033Z 03006KT 19/14 A3021 RMK A01 T01910142  RH  073%=      5-min Rain = 0
KSP2 141034Z 04005KT 19/14 A3021 RMK A01 T01910141  RH  073%=      5-min Rain = 0
KSP2 141035Z 04005KT 19/14 A3021 RMK A01 T01910141  RH  073%=      5-min Rain = 0
KSP2 141036Z 04006KT 19/14 A3021 RMK A01 T01910142  RH  073%=      5-min Rain = 0
KSP2 141037Z 05005KT 19/14 A3021 RMK A01 T01910142  RH  073%=      5-min Rain = 0
KSP2 141038Z 04005KT 19/14 A3021 RMK A01 T01900141  RH  073%=      5-min Rain = 0
KSP2 141039Z 05005KT 19/14 A3021 RMK A01 T01900142  RH  073%=      5-min Rain = 0
KSP2 141040Z 04005KT 19/14 A3021 RMK A01 T01900142  RH  073%=      5-min Rain = 0
KSP2 141041Z 05006KT 19/14 A3021 RMK A01 T01900142  RH  074%=      5-min Rain = 0
KSP2 141042Z 05006KT 19/14 A3021 RMK A01 T01900142  RH  074%=      5-min Rain = 0
KSP2 141043Z 05007KT 19/14 A3021 RMK A01 T01900142  RH  074%=      5-min Rain = 0
KSP2 141044Z 05006KT 19/14 A3021 RMK A01 T01900142  RH  074%=      5-min Rain = 0
KSP2 141045Z 05005KT 19/14 A3021 RMK A01 T01900143  RH  074%=      5-min Rain = 0
KSP2 141046Z 04006KT 19/14 A3021 RMK A01 T01890142  RH  074%=      5-min Rain = 0
KSP2 141047Z 04007KT 19/14 A3021 RMK A01 T01890142  RH  074%=      5-min Rain = 0
KSP2 141048Z 04007KT 19/14 A3021 RMK A01 T01890142  RH  074%=      5-min Rain = 0
KSP2 141049Z 04006KT 19/14 A3021 RMK A01 T01890143  RH  074%=      5-min Rain = 0
KSP2 141050Z 04007KT 19/14 A3021 RMK A01 T01890143  RH  074%=      5-min Rain = 0
KSP2 141051Z 04007KT 19/14 A3021 RMK A01 T01890143  RH  074%=      5-min Rain = 0
KSP2 141052Z 04008KT 19/14 A3021 RMK A01 T01890143  RH  074%=      5-min Rain = 0
KSP2 141053Z 04009KT 19/14 A3021 RMK A01 T01890143  RH  074%=      5-min Rain = 0
KSP2 141054Z 03006KT 19/14 A3021 RMK A01 T01890143  RH  074%=      5-min Rain = 0
KSP2 141055Z 04008KT 19/14 A3021 RMK A01 T01890143  RH  075%=      5-min Rain = 0
KSP2 141056Z 04008KT 19/14 A3021 RMK A01 T01890143  RH  075%=      5-min Rain = 0
KSP2 141057Z 03008KT 19/14 A3021 RMK A01 T01890143  RH  075%=      5-min Rain = 0
KSP2 141058Z 04007KT 19/14 A3021 RMK A01 T01880143  RH  075%=      5-min Rain = 0
KSP2 141059Z 04007KT 19/14 A3021 RMK A01 T01880143  RH  075%=      5-min Rain = 0
KSP2 141100Z 04008KT 19/14 A3021 RMK A01 T01890143  RH  075%=      5-min Rain = 0
KSP2 141101Z 04007KT 19/14 A3021 RMK A01 T01890143  RH  075%=      5-min Rain = 0
KSP2 141102Z 04006KT 19/14 A3021 RMK A01 T01890144  RH  075%=      5-min Rain = 0
KSP2 141103Z 04007KT 19/14 A3021 RMK A01 T01880143  RH  075%=      5-min Rain = 0
KSP2 141104Z 04008KT 19/14 A3021 RMK A01 T01880143  RH  075%=      5-min Rain = 0
KSP2 141105Z 04007KT 19/14 A3022 RMK A01 T01880143  RH  075%=      5-min Rain = 0
KSP2 141106Z 03008KT 19/14 A3022 RMK A01 T01880144  RH  075%=      5-min Rain = 0
KSP2 141107Z 03007KT 19/14 A3022 RMK A01 T01880144  RH  075%=      5-min Rain = 0
KSP2 141108Z 03008KT 19/14 A3022 RMK A01 T01880143  RH  075%=      5-min Rain = 0
KSP2 141109Z 03008KT 19/14 A3022 RMK A01 T01880144  RH  075%=      5-min Rain = 0
KSP2 141110Z 03008KT 19/14 A3022 RMK A01 T01880144  RH  076%=      5-min Rain = 0
KSP2 141111Z 03008KT 19/14 A3022 RMK A01 T01880144  RH  076%=      5-min Rain = 0
KSP2 141112Z 03008KT 19/14 A3022 RMK A01 T01880144  RH  076%=      5-min Rain = 0
KSP2 141113Z 03008KT 19/14 A3022 RMK A01 T01880144  RH  076%=      5-min Rain = 0
KSP2 141114Z 03007KT 19/14 A3022 RMK A01 T01880144  RH  076%=      5-min Rain = 0
KSP2 141115Z 03009KT 19/14 A3022 RMK A01 T01880144  RH  076%=      5-min Rain = 0
KSP2 141116Z 03007KT 19/14 A3022 RMK A01 T01880144  RH  076%=      5-min Rain = 0
KSP2 141117Z 03008KT 19/14 A3022 RMK A01 T01880144  RH  076%=      5-min Rain = 0
KSP2 141118Z 03008KT 19/14 A3022 RMK A01 T01880144  RH  076%=      5-min Rain = 0
KSP2 141119Z 03008KT 19/14 A3022 RMK A01 T01880144  RH  076%=      5-min Rain = 0
KSP2 141120Z 02008KT 19/15 A3022 RMK A01 T01880145  RH  076%=      5-min Rain = 0
KSP2 141121Z 03008KT 19/15 A3022 RMK A01 T01880145  RH  076%=      5-min Rain = 0
KSP2 141122Z 03008KT 19/15 A3022 RMK A01 T01880145  RH  076%=      5-min Rain = 0
KSP2 141123Z 03007KT 19/15 A3022 RMK A01 T01890145  RH  076%=      5-min Rain = 0
KSP2 141124Z 02007KT 19/15 A3022 RMK A01 T01890145  RH  076%=      5-min Rain = 0
KSP2 141125Z 03007KT 19/15 A3022 RMK A01 T01890145  RH  076%=      5-min Rain = 0
KSP2 141126Z 03007KT 19/15 A3022 RMK A01 T01880145  RH  076%=      5-min Rain = 0
KSP2 141127Z 03007KT 19/15 A3022 RMK A01 T01880145  RH  076%=      5-min Rain = 0
KSP2 141128Z 03008KT 19/15 A3022 RMK A01 T01880145  RH  076%=      5-min Rain = 0
KSP2 141129Z 03007KT 19/15 A3022 RMK A01 T01880145  RH  076%=      5-min Rain = 0
KSP2 141130Z 03007KT 19/15 A3022 RMK A01 T01880145  RH  076%=      5-min Rain = 0
KSP2 141131Z 03008KT 19/15 A3022 RMK A01 T01880145  RH  076%=      5-min Rain = 0
KSP2 141132Z 03007KT 19/15 A3022 RMK A01 T01880145  RH  076%=      5-min Rain = 0
KSP2 141133Z 03006KT 19/15 A3022 RMK A01 T01890146  RH  076%=      5-min Rain = 0
KSP2 141134Z 03006KT 19/15 A3022 RMK A01 T01890146  RH  076%=      5-min Rain = 0
KSP2 141135Z 03006KT 19/15 A3022 RMK A01 T01880146  RH  076%=      5-min Rain = 0
KSP2 141136Z 03006KT 19/15 A3022 RMK A01 T01880146  RH  077%=      5-min Rain = 0
KSP2 141137Z 03006KT 19/15 A3022 RMK A01 T01870146  RH  077%=      5-min Rain = 0
KSP2 141138Z 03006KT 19/15 A3022 RMK A01 T01870146  RH  077%=      5-min Rain = 0
KSP2 141139Z 03007KT 19/15 A3022 RMK A01 T01870146  RH  077%=      5-min Rain = 0
KSP2 141140Z 03006KT 19/15 A3022 RMK A01 T01870146  RH  077%=      5-min Rain = 0
KSP2 141141Z 03007KT 19/15 A3022 RMK A01 T01870146  RH  077%=      5-min Rain = 0
KSP2 141142Z 03007KT 19/15 A3022 RMK A01 T01870146  RH  077%=      5-min Rain = 0
KSP2 141143Z 02007KT 19/15 A3022 RMK A01 T01870146  RH  077%=      5-min Rain = 0
KSP2 141144Z 03007KT 19/15 A3022 RMK A01 T01870147  RH  077%=      5-min Rain = 0
KSP2 141145Z 03007KT 19/15 A3022 RMK A01 T01870147  RH  077%=      5-min Rain = 0
KSP2 141146Z 03008KT 19/15 A3022 RMK A01 T01860146  RH  077%=      5-min Rain = 0
KSP2 141147Z 03006KT 19/15 A3022 RMK A01 T01860146  RH  078%=      5-min Rain = 0
KSP2 141148Z 03007KT 19/15 A3022 RMK A01 T01860146  RH  078%=      5-min Rain = 0
KSP2 141149Z 03007KT 19/15 A3022 RMK A01 T01860147  RH  078%=      5-min Rain = 0
KSP2 141150Z 03007KT 19/15 A3022 RMK A01 T01860147  RH  078%=      5-min Rain = 0
KSP2 141151Z 03007KT 19/15 A3022 RMK A01 T01860147  RH  078%=      5-min Rain = 0
KSP2 141152Z 03005KT 19/15 A3022 RMK A01 T01860147  RH  078%=      5-min Rain = 0
KSP2 141153Z 03007KT 19/15 A3022 RMK A01 T01860147  RH  078%=      5-min Rain = 0
KSP2 141154Z 04007KT 19/15 A3022 RMK A01 T01860147  RH  078%=      5-min Rain = 0
KSP2 141155Z 03006KT 19/15 A3022 RMK A01 T01860147  RH  078%=      5-min Rain = 0
KSP2 141156Z 02006KT 19/15 A3022 RMK A01 T01860147  RH  078%=      5-min Rain = 0
KSP2 141157Z 02007KT 19/15 A3023 RMK A01 T01860147  RH  078%=      5-min Rain = 0
KSP2 141158Z 02007KT 19/15 A3023 RMK A01 T01850147  RH  078%=      5-min Rain = 0
KSP2 141159Z 03006KT 19/15 A3023 RMK A01 T01850147  RH  079%=      5-min Rain = 0
KSP2 141200Z 03006KT 19/15 A3023 RMK A01 T01850147  RH  079%=      5-min Rain = 0
KSP2 141201Z 03006KT 19/15 A3023 RMK A01 T01850148  RH  079%=      5-min Rain = 0
KSP2 141202Z 03006KT 19/15 A3023 RMK A01 T01850147  RH  079%=      5-min Rain = 0
KSP2 141203Z 03006KT 19/15 A3023 RMK A01 T01850147  RH  079%=      5-min Rain = 0
KSP2 141204Z 03005KT 19/15 A3023 RMK A01 T01850147  RH  079%=      5-min Rain = 0
KSP2 141205Z 02004KT 18/15 A3023 RMK A01 T01840147  RH  079%=      5-min Rain = 0
KSP2 141206Z 03005KT 18/15 A3023 RMK A01 T01840147  RH  079%=      5-min Rain = 0
KSP2 141207Z 03004KT 18/15 A3023 RMK A01 T01840147  RH  079%=      5-min Rain = 0
KSP2 141208Z 03004KT 18/15 A3023 RMK A01 T01830147  RH  079%=      5-min Rain = 0
KSP2 141209Z 03004KT 18/15 A3023 RMK A01 T01840147  RH  079%=      5-min Rain = 0
KSP2 141210Z 03004KT 18/15 A3023 RMK A01 T01840147  RH  079%=      5-min Rain = 0
KSP2 141211Z 04003KT 18/15 A3023 RMK A01 T01840147  RH  079%=      5-min Rain = 0
KSP2 141212Z 04003KT 18/15 A3023 RMK A01 T01830147  RH  079%=      5-min Rain = 0
KSP2 141213Z 03004KT 18/15 A3023 RMK A01 T01840147  RH  079%=      5-min Rain = 0
KSP2 141214Z 02004KT 18/15 A3023 RMK A01 T01840147  RH  079%=      5-min Rain = 0
KSP2 141215Z 02004KT 18/15 A3023 RMK A01 T01830146  RH  079%=      5-min Rain = 0
KSP2 141216Z 02004KT 18/15 A3023 RMK A01 T01840147  RH  079%=      5-min Rain = 0
KSP2 141217Z 02004KT 18/15 A3023 RMK A01 T01840147  RH  079%=      5-min Rain = 0
KSP2 141218Z 02004KT 18/15 A3023 RMK A01 T01830147  RH  079%=      5-min Rain = 0
KSP2 141219Z 02005KT 18/15 A3023 RMK A01 T01830147  RH  080%=      5-min Rain = 0
KSP2 141220Z 02004KT 18/15 A3023 RMK A01 T01830148  RH  080%=      5-min Rain = 0
KSP2 141221Z 01005KT 18/15 A3023 RMK A01 T01830147  RH  080%=      5-min Rain = 0
KSP2 141222Z 02005KT 18/15 A3023 RMK A01 T01830148  RH  080%=      5-min Rain = 0
KSP2 141223Z 01004KT 18/15 A3023 RMK A01 T01830148  RH  080%=      5-min Rain = 0
KSP2 141224Z 02004KT 18/15 A3023 RMK A01 T01830148  RH  080%=      5-min Rain = 0
KSP2 141225Z 01004KT 18/15 A3023 RMK A01 T01830148  RH  080%=      5-min Rain = 0
KSP2 141226Z 01005KT 18/15 A3023 RMK A01 T01830148  RH  080%=      5-min Rain = 0
KSP2 141227Z 02003KT 18/15 A3023 RMK A01 T01830148  RH  080%=      5-min Rain = 0
KSP2 141228Z 03003KT 18/15 A3023 RMK A01 T01830148  RH  080%=      5-min Rain = 0
KSP2 141229Z 02004KT 18/15 A3023 RMK A01 T01840149  RH  080%=      5-min Rain = 0
KSP2 141230Z 02004KT 18/15 A3024 RMK A01 T01840148  RH  080%=      5-min Rain = 0
KSP2 141231Z 02004KT 18/15 A3024 RMK A01 T01840149  RH  080%=      5-min Rain = 0
KSP2 141232Z 02004KT 19/15 A3024 RMK A01 T01850149  RH  079%=      5-min Rain = 0
KSP2 141233Z 02004KT 19/15 A3024 RMK A01 T01860149  RH  079%=      5-min Rain = 0
KSP2 141234Z 02004KT 19/15 A3024 RMK A01 T01860149  RH  079%=      5-min Rain = 0
KSP2 141235Z 03003KT 19/15 A3024 RMK A01 T01870150  RH  079%=      5-min Rain = 0
KSP2 141236Z 03003KT 19/15 A3024 RMK A01 T01880150  RH  078%=      5-min Rain = 0
KSP2 141237Z 02003KT 19/15 A3024 RMK A01 T01890150  RH  078%=      5-min Rain = 0
KSP2 141238Z 01005KT 19/15 A3024 RMK A01 T01890150  RH  078%=      5-min Rain = 0
KSP2 141239Z 00005KT 19/15 A3024 RMK A01 T01890150  RH  078%=      5-min Rain = 0
KSP2 141240Z 36007KT 19/15 A3024 RMK A01 T01900151  RH  078%=      5-min Rain = 0
KSP2 141241Z 35008KT 19/15 A3025 RMK A01 T01890151  RH  078%=      5-min Rain = 0
KSP2 141242Z 35008KT 19/15 A3025 RMK A01 T01890152  RH  079%=      5-min Rain = 0
KSP2 141243Z 35008KT 19/15 A3025 RMK A01 T01900152  RH  079%=      5-min Rain = 0
KSP2 141244Z 35009KT 19/15 A3025 RMK A01 T01900152  RH  078%=      5-min Rain = 0
KSP2 141245Z 36007KT 19/15 A3025 RMK A01 T01910151  RH  078%=      5-min Rain = 0
KSP2 141246Z 00007KT 19/15 A3024 RMK A01 T01910150  RH  077%=      5-min Rain = 0
KSP2 141247Z 02004KT 19/15 A3024 RMK A01 T01910150  RH  077%=      5-min Rain = 0
KSP2 141248Z 03004KT 19/15 A3024 RMK A01 T01920150  RH  077%=      5-min Rain = 0
KSP2 141249Z 04003KT 19/15 A3024 RMK A01 T01920150  RH  077%=      5-min Rain = 0
KSP2 141250Z 02003KT 19/15 A3024 RMK A01 T01920151  RH  077%=      5-min Rain = 0
KSP2 141251Z 01004KT 19/15 A3024 RMK A01 T01920150  RH  077%=      5-min Rain = 0
KSP2 141252Z 00004KT 19/15 A3024 RMK A01 T01920150  RH  077%=      5-min Rain = 0
KSP2 141253Z 01005KT 19/15 A3024 RMK A01 T01930151  RH  076%=      5-min Rain = 0
KSP2 141254Z 02005KT 19/15 A3024 RMK A01 T01940150  RH  076%=      5-min Rain = 0
KSP2 141255Z 02005KT 20/15 A3024 RMK A01 T01950151  RH  076%=      5-min Rain = 0
KSP2 141256Z 02004KT 20/15 A3024 RMK A01 T01950151  RH  075%=      5-min Rain = 0
KSP2 141257Z 02004KT 20/15 A3024 RMK A01 T01960151  RH  075%=      5-min Rain = 0
KSP2 141258Z 01005KT 20/15 A3024 RMK A01 T01970151  RH  075%=      5-min Rain = 0
KSP2 141259Z 01005KT 20/15 A3024 RMK A01 T01980151  RH  074%=      5-min Rain = 0
KSP2 141300Z 01006KT 20/15 A3024 RMK A01 T01990151  RH  074%=      5-min Rain = 0
KSP2 141301Z 02005KT 20/15 A3023 RMK A01 T01990151  RH  073%=      5-min Rain = 0
KSP2 141302Z 03003KT 20/15 A3023 RMK A01 T02000150  RH  073%=      5-min Rain = 0
KSP2 141303Z 06002KT 20/15 A3023 RMK A01 T02010151  RH  073%=      5-min Rain = 0
KSP2 141304Z 04002KT 20/15 A3023 RMK A01 T02020151  RH  072%=      5-min Rain = 0
KSP2 141305Z 03002KT 20/15 A3023 RMK A01 T02040151  RH  072%=      5-min Rain = 0
KSP2 141306Z 03003KT 21/15 A3023 RMK A01 T02050151  RH  071%=      5-min Rain = 0
KSP2 141307Z 04003KT 21/15 A3023 RMK A01 T02060151  RH  071%=      5-min Rain = 0
KSP2 141308Z 03003KT 21/15 A3023 RMK A01 T02060151  RH  071%=      5-min Rain = 0
KSP2 141309Z 03003KT 21/15 A3023 RMK A01 T02070151  RH  071%=      5-min Rain = 0
KSP2 141310Z 01003KT 21/15 A3023 RMK A01 T02080152  RH  070%=      5-min Rain = 0
KSP2 141311Z 01004KT 21/15 A3024 RMK A01 T02080152  RH  070%=      5-min Rain = 0
KSP2 141312Z 01005KT 21/15 A3024 RMK A01 T02080152  RH  070%=      5-min Rain = 0
KSP2 141313Z 00004KT 21/15 A3024 RMK A01 T02080152  RH  070%=      5-min Rain = 0
KSP2 141314Z 36006KT 21/15 A3024 RMK A01 T02080152  RH  070%=      5-min Rain = 0
KSP2 141315Z 00007KT 21/15 A3024 RMK A01 T02090152  RH  070%=      5-min Rain = 0
KSP2 141316Z 35007KT 21/15 A3024 RMK A01 T02090153  RH  070%=      5-min Rain = 0
KSP2 141317Z 36009KT 21/15 A3024 RMK A01 T02100153  RH  070%=      5-min Rain = 0
KSP2 141318Z 00010KT 21/15 A3024 RMK A01 T02110154  RH  070%=      5-min Rain = 0
KSP2 141319Z 36009KT 21/15 A3024 RMK A01 T02110153  RH  069%=      5-min Rain = 0
KSP2 141320Z 00007KT 21/15 A3024 RMK A01 T02110153  RH  069%=      5-min Rain = 0
KSP2 141321Z 35006KT 21/15 A3024 RMK A01 T02120153  RH  069%=      5-min Rain = 0
KSP2 141322Z 35007KT 21/15 A3024 RMK A01 T02130153  RH  068%=      5-min Rain = 0
KSP2 141323Z 35007KT 21/15 A3024 RMK A01 T02140152  RH  068%=      5-min Rain = 0
KSP2 141324Z 35008KT 21/15 A3024 RMK A01 T02140152  RH  068%=      5-min Rain = 0
KSP2 141325Z 35009KT 21/15 A3024 RMK A01 T02140152  RH  068%=      5-min Rain = 0
KSP2 141326Z 35009KT 21/15 A3024 RMK A01 T02140152  RH  068%=      5-min Rain = 0
KSP2 141327Z 36007KT 21/15 A3024 RMK A01 T02140151  RH  067%=      5-min Rain = 0
KSP2 141328Z 00006KT 21/15 A3024 RMK A01 T02140151  RH  068%=      5-min Rain = 0
KSP2 141329Z 03005KT 21/15 A3024 RMK A01 T02140151  RH  067%=      5-min Rain = 0
KSP2 141330Z 03005KT 22/15 A3024 RMK A01 T02150151  RH  067%=      5-min Rain = 0
KSP2 141331Z 02006KT 22/15 A3024 RMK A01 T02160151  RH  066%=      5-min Rain = 0
KSP2 141332Z 02004KT 22/15 A3024 RMK A01 T02170151  RH  066%=      5-min Rain = 0
KSP2 141333Z 02004KT 22/15 A3024 RMK A01 T02170152  RH  066%=      5-min Rain = 0
KSP2 141334Z 02007KT 22/15 A3024 RMK A01 T02170152  RH  066%=      5-min Rain = 0
KSP2 141335Z 02007KT 22/15 A3024 RMK A01 T02180152  RH  066%=      5-min Rain = 0
KSP2 141336Z 00009KT 22/15 A3025 RMK A01 T02180152  RH  066%=      5-min Rain = 0
KSP2 141337Z 00008KT 22/15 A3025 RMK A01 T02180152  RH  066%=      5-min Rain = 0
KSP2 141338Z 01008KT 22/15 A3025 RMK A01 T02170152  RH  066%=      5-min Rain = 0
KSP2 141339Z 02007KT 22/15 A3025 RMK A01 T02160152  RH  067%=      5-min Rain = 0
KSP2 141340Z 02006KT 22/15 A3025 RMK A01 T02160152  RH  067%=      5-min Rain = 0
KSP2 141341Z 01005KT 22/15 A3025 RMK A01 T02160152  RH  067%=      5-min Rain = 0
KSP2 141342Z 02004KT 22/15 A3024 RMK A01 T02170152  RH  067%=      5-min Rain = 0
KSP2 141343Z 03005KT 22/15 A3024 RMK A01 T02180153  RH  066%=      5-min Rain = 0
KSP2 141344Z 01005KT 22/15 A3025 RMK A01 T02190152  RH  066%=      5-min Rain = 0
KSP2 141345Z 02005KT 22/15 A3025 RMK A01 T02180153  RH  066%=      5-min Rain = 0
KSP2 141346Z 01005KT 22/15 A3025 RMK A01 T02190153  RH  066%=      5-min Rain = 0
KSP2 141347Z 02006KT 22/15 A3025 RMK A01 T02210153  RH  066%=      5-min Rain = 0
KSP2 141348Z 01005KT 22/15 A3025 RMK A01 T02220153  RH  065%=      5-min Rain = 0
KSP2 141349Z 02005KT 22/15 A3025 RMK A01 T02220153  RH  065%=      5-min Rain = 0
KSP2 141350Z 03005KT 22/15 A3025 RMK A01 T02220154  RH  065%=      5-min Rain = 0
KSP2 141351Z 02004KT 22/15 A3025 RMK A01 T02230154  RH  065%=      5-min Rain = 0
KSP2 141352Z 35005KT 22/15 A3025 RMK A01 T02240153  RH  064%=      5-min Rain = 0
KSP2 141353Z 35004KT 23/15 A3025 RMK A01 T02250154  RH  064%=      5-min Rain = 0
KSP2 141354Z 00004KT 23/15 A3025 RMK A01 T02260154  RH  064%=      5-min Rain = 0
KSP2 141355Z 00005KT 23/15 A3025 RMK A01 T02270154  RH  063%=      5-min Rain = 0
KSP2 141356Z 02005KT 23/16 A3025 RMK A01 T02290155  RH  063%=      5-min Rain = 0
KSP2 141357Z 01006KT 23/16 A3025 RMK A01 T02300155  RH  063%=      5-min Rain = 0
KSP2 141358Z 01007KT 23/15 A3025 RMK A01 T02310154  RH  062%=      5-min Rain = 0
KSP2 141359Z 01007KT 23/16 A3025 RMK A01 T02300155  RH  062%=      5-min Rain = 0
KSP2 141400Z 01007KT 23/16 A3025 RMK A01 T02300155  RH  063%=      5-min Rain = 0
KSP2 141401Z 01006KT 23/16 A3025 RMK A01 T02300155  RH  063%=      5-min Rain = 0
KSP2 141402Z 36007KT 23/16 A3025 RMK A01 T02280155  RH  063%=      5-min Rain = 0
KSP2 141403Z 36007KT 23/16 A3025 RMK A01 T02280156  RH  064%=      5-min Rain = 0
KSP2 141404Z 35009KT 23/16 A3026 RMK A01 T02270155  RH  064%=      5-min Rain = 0
KSP2 141405Z 35007KT 23/16 A3026 RMK A01 T02280155  RH  064%=      5-min Rain = 0
KSP2 141406Z 00007KT 23/16 A3026 RMK A01 T02300156  RH  063%=      5-min Rain = 0
KSP2 141407Z 35007KT 23/16 A3026 RMK A01 T02340157  RH  062%=      5-min Rain = 0
KSP2 141408Z 35007KT 24/16 A3026 RMK A01 T02350157  RH  061%=      5-min Rain = 0
KSP2 141409Z 01007KT 24/16 A3026 RMK A01 T02350156  RH  061%=      5-min Rain = 0
KSP2 141410Z 36008KT 24/16 A3026 RMK A01 T02360157  RH  061%=      5-min Rain = 0
KSP2 141411Z 35007KT 24/16 A3026 RMK A01 T02370156  RH  061%=      5-min Rain = 0
KSP2 141412Z 35006KT 24/16 A3026 RMK A01 T02370157  RH  061%=      5-min Rain = 0
KSP2 141413Z 36005KT 24/16 A3026 RMK A01 T02370156  RH  060%=      5-min Rain = 0
KSP2 141414Z 36006KT 24/16 A3026 RMK A01 T02380157  RH  060%=      5-min Rain = 0
KSP2 141415Z 36004KT 24/16 A3026 RMK A01 T02400158  RH  060%=      5-min Rain = 0
KSP2 141416Z 34007KT 24/16 A3026 RMK A01 T02410158  RH  060%=      5-min Rain = 0
KSP2 141417Z 34005KT 24/16 A3026 RMK A01 T02400158  RH  060%=      5-min Rain = 0
KSP2 141418Z 35006KT 24/16 A3026 RMK A01 T02390158  RH  061%=      5-min Rain = 0
KSP2 141419Z 34006KT 24/16 A3026 RMK A01 T02390158  RH  061%=      5-min Rain = 0
KSP2 141420Z 33007KT 24/16 A3026 RMK A01 T02380158  RH  061%=      5-min Rain = 0
KSP2 141421Z 34007KT 24/16 A3026 RMK A01 T02370158  RH  061%=      5-min Rain = 0
KSP2 141422Z 34007KT 24/16 A3026 RMK A01 T02370158  RH  061%=      5-min Rain = 0
KSP2 141423Z 33007KT 24/16 A3026 RMK A01 T02370158  RH  061%=      5-min Rain = 0
KSP2 141424Z 33008KT 24/16 A3026 RMK A01 T02370159  RH  062%=      5-min Rain = 0
KSP2 141425Z 34007KT 24/16 A3026 RMK A01 T02360159  RH  062%=      5-min Rain = 0
KSP2 141426Z 35008KT 24/16 A3026 RMK A01 T02360159  RH  062%=      5-min Rain = 0
KSP2 141427Z 33007KT 24/16 A3026 RMK A01 T02350159  RH  062%=      5-min Rain = 0
KSP2 141428Z 34008KT 24/16 A3026 RMK A01 T02350158  RH  062%=      5-min Rain = 0
KSP2 141429Z 34007KT 23/16 A3026 RMK A01 T02340158  RH  063%=      5-min Rain = 0
KSP2 141430Z 35006KT 24/16 A3026 RMK A01 T02360159  RH  062%=      5-min Rain = 0
KSP2 141431Z 35008KT 24/16 A3026 RMK A01 T02390159  RH  061%=      5-min Rain = 0
KSP2 141432Z 34007KT 24/16 A3026 RMK A01 T02400159  RH  061%=      5-min Rain = 0
KSP2 141433Z 35006KT 24/16 A3026 RMK A01 T02400159  RH  060%=      5-min Rain = 0
KSP2 141434Z 34007KT 24/16 A3026 RMK A01 T02390159  RH  061%=      5-min Rain = 0
KSP2 141435Z 34008KT 24/16 A3026 RMK A01 T02380159  RH  061%=      5-min Rain = 0
KSP2 141436Z 33007KT 24/16 A3026 RMK A01 T02360159  RH  062%=      5-min Rain = 0
KSP2 141437Z 33008KT 24/16 A3026 RMK A01 T02350159  RH  062%=      5-min Rain = 0
KSP2 141438Z 33008KT 23/16 A3026 RMK A01 T02340159  RH  063%=      5-min Rain = 0
KSP2 141439Z 32009KT 23/16 A3026 RMK A01 T02330159  RH  063%=      5-min Rain = 0
KSP2 141440Z 33007KT 23/16 A3026 RMK A01 T02320160  RH  064%=      5-min Rain = 0
KSP2 141441Z 33007KT 23/16 A3026 RMK A01 T02330159  RH  063%=      5-min Rain = 0
KSP2 141442Z 33007KT 23/16 A3026 RMK A01 T02330159  RH  063%=      5-min Rain = 0
KSP2 141443Z 32006KT 23/16 A3026 RMK A01 T02330160  RH  063%=      5-min Rain = 0
KSP2 141444Z 32008KT 23/16 A3026 RMK A01 T02330159  RH  063%=      5-min Rain = 0
KSP2 141445Z 33007KT 23/16 A3026 RMK A01 T02330159  RH  063%=      5-min Rain = 0
KSP2 141446Z 34008KT 23/16 A3026 RMK A01 T02330160  RH  063%=      5-min Rain = 0
KSP2 141447Z 34007KT 23/16 A3026 RMK A01 T02320159  RH  063%=      5-min Rain = 0
KSP2 141448Z 35006KT 23/16 A3026 RMK A01 T02320159  RH  063%=      5-min Rain = 0
KSP2 141449Z 34005KT 23/16 A3026 RMK A01 T02320158  RH  063%=      5-min Rain = 0
KSP2 141450Z 35006KT 23/16 A3026 RMK A01 T02330158  RH  063%=      5-min Rain = 0
KSP2 141451Z 36005KT 24/16 A3026 RMK A01 T02350159  RH  062%=      5-min Rain = 0
KSP2 141452Z 01004KT 24/16 A3026 RMK A01 T02360158  RH  062%=      5-min Rain = 0
KSP2 141453Z 36004KT 24/16 A3026 RMK A01 T02370159  RH  061%=      5-min Rain = 0
KSP2 141454Z 36003KT 24/16 A3025 RMK A01 T02370159  RH  061%=      5-min Rain = 0
KSP2 141455Z 00002KT 24/16 A3025 RMK A01 T02400160  RH  061%=      5-min Rain = 0
KSP2 141456Z 30003KT 24/16 A3025 RMK A01 T02430159  RH  059%=      5-min Rain = 0
KSP2 141457Z 33004KT 25/16 A3025 RMK A01 T02460161  RH  059%=      5-min Rain = 0
KSP2 141458Z 35004KT 25/16 A3025 RMK A01 T02480160  RH  058%=      5-min Rain = 0
KSP2 141459Z 33002KT 25/16 A3025 RMK A01 T02510160  RH  057%=      5-min Rain = 0
KSP2 141500Z 34003KT 25/16 A3025 RMK A01 T02520159  RH  056%=      5-min Rain = 0
KSP2 141501Z 32002KT 25/16 A3025 RMK A01 T02500158  RH  057%=      5-min Rain = 0
KSP2 141502Z 29000KT 25/16 A3025 RMK A01 T02480158  RH  057%=      5-min Rain = 0
KSP2 141503Z 08000KT 25/16 A3025 RMK A01 T02470158  RH  058%=      5-min Rain = 0
KSP2 141504Z 04003KT 25/16 A3025 RMK A01 T02470159  RH  058%=      5-min Rain = 0
KSP2 141505Z 03004KT 25/16 A3025 RMK A01 T02480159  RH  058%=      5-min Rain = 0
KSP2 141506Z 06005KT 25/16 A3025 RMK A01 T02490159  RH  057%=      5-min Rain = 0
KSP2 141507Z 07003KT 25/16 A3025 RMK A01 T02500159  RH  057%=      5-min Rain = 0
KSP2 141508Z 09003KT 25/16 A3025 RMK A01 T02500159  RH  057%=      5-min Rain = 0
KSP2 141509Z 11001KT 25/16 A3025 RMK A01 T02500159  RH  057%=      5-min Rain = 0
KSP2 141510Z 11002KT 25/16 A3025 RMK A01 T02500159  RH  057%=      5-min Rain = 0
KSP2 141511Z 11003KT 25/16 A3025 RMK A01 T02540160  RH  056%=      5-min Rain = 0
KSP2 141512Z 10003KT 26/16 A3025 RMK A01 T02550160  RH  055%=      5-min Rain = 0
KSP2 141513Z 09003KT 26/16 A3025 RMK A01 T02560160  RH  055%=      5-min Rain = 0
KSP2 141514Z 08005KT 26/16 A3025 RMK A01 T02580161  RH  055%=      5-min Rain = 0
KSP2 141515Z 09004KT 26/16 A3025 RMK A01 T02590160  RH  054%=      5-min Rain = 0
KSP2 141516Z 09003KT 26/16 A3025 RMK A01 T02560160  RH  056%=      5-min Rain = 0
KSP2 141517Z 12004KT 25/16 A3025 RMK A01 T02540160  RH  056%=      5-min Rain = 0
KSP2 141518Z 11005KT 25/16 A3025 RMK A01 T02530161  RH  057%=      5-min Rain = 0
KSP2 141519Z 11003KT 25/16 A3025 RMK A01 T02540161  RH  056%=      5-min Rain = 0
KSP2 141520Z 12005KT 25/16 A3025 RMK A01 T02540161  RH  057%=      5-min Rain = 0
KSP2 141521Z 13004KT 25/16 A3025 RMK A01 T02520162  RH  057%=      5-min Rain = 0
KSP2 141522Z 08004KT 25/16 A3025 RMK A01 T02520162  RH  057%=      5-min Rain = 0
KSP2 141523Z 08006KT 25/16 A3025 RMK A01 T02530162  RH  057%=      5-min Rain = 0
KSP2 141524Z 08005KT 26/16 A3025 RMK A01 T02560163  RH  056%=      5-min Rain = 0
KSP2 141525Z 08006KT 26/16 A3025 RMK A01 T02590162  RH  055%=      5-min Rain = 0
KSP2 141526Z 07006KT 26/16 A3025 RMK A01 T02570162  RH  056%=      5-min Rain = 0
KSP2 141527Z 05006KT 26/16 A3025 RMK A01 T02560162  RH  056%=      5-min Rain = 0
KSP2 141528Z 06006KT 26/16 A3024 RMK A01 T02560162  RH  056%=      5-min Rain = 0
KSP2 141529Z 08004KT 26/16 A3024 RMK A01 T02590163  RH  055%=      5-min Rain = 0
KSP2 141530Z 07004KT 26/16 A3024 RMK A01 T02610163  RH  055%=      5-min Rain = 0
KSP2 141531Z 08006KT 26/16 A3024 RMK A01 T02630163  RH  054%=      5-min Rain = 0
KSP2 141532Z 08005KT 26/16 A3024 RMK A01 T02610162  RH  055%=      5-min Rain = 0
KSP2 141533Z 08004KT 26/16 A3024 RMK A01 T02580162  RH  055%=      5-min Rain = 0
KSP2 141534Z 07004KT 26/16 A3024 RMK A01 T02560162  RH  056%=      5-min Rain = 0
KSP2 141535Z 09004KT 26/16 A3024 RMK A01 T02550162  RH  056%=      5-min Rain = 0
KSP2 141536Z 10004KT 25/16 A3024 RMK A01 T02530161  RH  057%=      5-min Rain = 0
KSP2 141537Z 10005KT 25/16 A3024 RMK A01 T02510162  RH  058%=      5-min Rain = 0
KSP2 141538Z 11006KT 25/16 A3024 RMK A01 T02510163  RH  058%=      5-min Rain = 0
KSP2 141539Z 11006KT 25/16 A3024 RMK A01 T02520162  RH  058%=      5-min Rain = 0
KSP2 141540Z 12004KT 25/16 A3024 RMK A01 T02530164  RH  058%=      5-min Rain = 0
KSP2 141541Z 12003KT 25/16 A3024 RMK A01 T02520163  RH  058%=      5-min Rain = 0
KSP2 141542Z 10003KT 25/16 A3024 RMK A01 T02530163  RH  057%=      5-min Rain = 0
KSP2 141543Z 13006KT 26/16 A3024 RMK A01 T02550164  RH  057%=      5-min Rain = 0
KSP2 141544Z 14007KT 26/17 A3024 RMK A01 T02570165  RH  057%=      5-min Rain = 0
KSP2 141545Z 13006KT 26/17 A3024 RMK A01 T02590165  RH  056%=      5-min Rain = 0
KSP2 141546Z 12004KT 26/17 A3024 RMK A01 T02600165  RH  056%=      5-min Rain = 0
KSP2 141547Z 10004KT 26/17 A3024 RMK A01 T02620165  RH  055%=      5-min Rain = 0
KSP2 141548Z 12006KT 26/16 A3023 RMK A01 T02620164  RH  055%=      5-min Rain = 0
KSP2 141549Z 12006KT 26/17 A3023 RMK A01 T02610165  RH  055%=      5-min Rain = 0
KSP2 141550Z 11005KT 26/17 A3023 RMK A01 T02610165  RH  055%=      5-min Rain = 0
KSP2 141551Z 13006KT 26/17 A3023 RMK A01 T02630166  RH  055%=      5-min Rain = 0
KSP2 141552Z 14005KT 27/17 A3023 RMK A01 T02650165  RH  054%=      5-min Rain = 0
KSP2 141553Z 16004KT 27/17 A3023 RMK A01 T02660165  RH  054%=      5-min Rain = 0
KSP2 141554Z 16006KT 27/17 A3023 RMK A01 T02650165  RH  054%=      5-min Rain = 0
KSP2 141555Z 14006KT 27/17 A3023 RMK A01 T02650167  RH  055%=      5-min Rain = 0
KSP2 141556Z 14007KT 27/17 A3023 RMK A01 T02660166  RH  054%=      5-min Rain = 0
KSP2 141557Z 14006KT 27/17 A3023 RMK A01 T02660166  RH  054%=      5-min Rain = 0
KSP2 141558Z 11007KT 27/17 A3023 RMK A01 T02660166  RH  054%=      5-min Rain = 0
KSP2 141559Z 10007KT 27/17 A3023 RMK A01 T02660166  RH  054%=      5-min Rain = 0
KSP2 141600Z 10005KT 27/17 A3023 RMK A01 T02660166  RH  054%=      5-min Rain = 0
KSP2 141601Z 10007KT 27/17 A3023 RMK A01 T02670166  RH  054%=      5-min Rain = 0
KSP2 141602Z 10004KT 27/17 A3023 RMK A01 T02670165  RH  054%=      5-min Rain = 0
KSP2 141603Z 11006KT 27/17 A3023 RMK A01 T02660166  RH  054%=      5-min Rain = 0
KSP2 141604Z 10006KT 27/17 A3023 RMK A01 T02670165  RH  054%=      5-min Rain = 0
KSP2 141605Z 10005KT 27/17 A3023 RMK A01 T02680166  RH  053%=      5-min Rain = 0
KSP2 141606Z 11006KT 27/17 A3023 RMK A01 T02700166  RH  053%=      5-min Rain = 0
KSP2 141607Z 13006KT 27/17 A3023 RMK A01 T02700167  RH  053%=      5-min Rain = 0
KSP2 141608Z 11008KT 27/17 A3022 RMK A01 T02700166  RH  053%=      5-min Rain = 0
KSP2 141609Z 12008KT 27/17 A3022 RMK A01 T02700165  RH  053%=      5-min Rain = 0
KSP2 141610Z 12007KT 27/17 A3023 RMK A01 T02700165  RH  052%=      5-min Rain = 0
KSP2 141611Z 09005KT 27/16 A3023 RMK A01 T02700164  RH  052%=      5-min Rain = 0
KSP2 141612Z 06001KT 27/17 A3023 RMK A01 T02690165  RH  053%=      5-min Rain = 0
KSP2 141613Z 14002KT 27/17 A3023 RMK A01 T02690165  RH  053%=      5-min Rain = 0
KSP2 141614Z 15003KT 27/17 A3023 RMK A01 T02710166  RH  053%=      5-min Rain = 0
KSP2 141615Z 10006KT 27/17 A3023 RMK A01 T02720165  RH  052%=      5-min Rain = 0
KSP2 141616Z 09004KT 27/17 A3023 RMK A01 T02710166  RH  053%=      5-min Rain = 0
KSP2 141617Z 10002KT 27/17 A3023 RMK A01 T02710166  RH  052%=      5-min Rain = 0
KSP2 141618Z 05003KT 27/17 A3023 RMK A01 T02730165  RH  052%=      5-min Rain = 0
KSP2 141619Z 05005KT 28/17 A3023 RMK A01 T02760166  RH  051%=      5-min Rain = 0
KSP2 141620Z 07004KT 28/17 A3023 RMK A01 T02780166  RH  050%=      5-min Rain = 0
KSP2 141621Z 05004KT 28/17 A3023 RMK A01 T02770166  RH  051%=      5-min Rain = 0
KSP2 141622Z 05002KT 28/17 A3022 RMK A01 T02760166  RH  051%=      5-min Rain = 0
KSP2 141623Z 09008KT 28/17 A3022 RMK A01 T02760165  RH  051%=      5-min Rain = 0
KSP2 141624Z 10006KT 28/17 A3022 RMK A01 T02750165  RH  051%=      5-min Rain = 0
KSP2 141625Z 08002KT 28/17 A3022 RMK A01 T02750165  RH  051%=      5-min Rain = 0
KSP2 141626Z 09004KT 28/17 A3023 RMK A01 T02750166  RH  051%=      5-min Rain = 0
KSP2 141627Z 05005KT 28/17 A3023 RMK A01 T02780168  RH  051%=      5-min Rain = 0
KSP2 141628Z 05006KT 28/17 A3023 RMK A01 T02830168  RH  050%=      5-min Rain = 0
KSP2 141629Z 06005KT 28/17 A3023 RMK A01 T02830168  RH  049%=      5-min Rain = 0
KSP2 141630Z 06004KT 28/17 A3023 RMK A01 T02820168  RH  050%=      5-min Rain = 0
KSP2 141631Z 02003KT 28/17 A3023 RMK A01 T02800166  RH  050%=      5-min Rain = 0
KSP2 141632Z 04002KT 28/17 A3023 RMK A01 T02780166  RH  050%=      5-min Rain = 0
KSP2 141633Z 07005KT 28/17 A3023 RMK A01 T02780166  RH  051%=      5-min Rain = 0
KSP2 141634Z 08005KT 28/17 A3023 RMK A01 T02780167  RH  051%=      5-min Rain = 0
KSP2 141635Z 08004KT 28/17 A3023 RMK A01 T02760166  RH  051%=      5-min Rain = 0
KSP2 141636Z 06003KT 28/17 A3023 RMK A01 T02760167  RH  051%=      5-min Rain = 0
KSP2 141637Z 00001KT 28/17 A3022 RMK A01 T02770168  RH  051%=      5-min Rain = 0
KSP2 141638Z 31001KT 28/17 A3022 RMK A01 T02780166  RH  051%=      5-min Rain = 0
KSP2 141639Z 34002KT 28/17 A3022 RMK A01 T02790167  RH  051%=      5-min Rain = 0
KSP2 141640Z 03003KT 28/17 A3022 RMK A01 T02800167  RH  050%=      5-min Rain = 0
KSP2 141641Z 05005KT 28/17 A3022 RMK A01 T02840168  RH  049%=      5-min Rain = 0
KSP2 141642Z 04007KT 29/16 A3022 RMK A01 T02890163  RH  047%=      5-min Rain = 0
KSP2 141643Z 04006KT 29/16 A3022 RMK A01 T02890164  RH  047%=      5-min Rain = 0
KSP2 141644Z 09004KT 29/16 A3022 RMK A01 T02890164  RH  047%=      5-min Rain = 0
KSP2 141645Z 07004KT 29/17 A3021 RMK A01 T02880165  RH  048%=      5-min Rain = 0
KSP2 141646Z 08004KT 29/17 A3021 RMK A01 T02880165  RH  047%=      5-min Rain = 0
KSP2 141647Z 08005KT 29/16 A3021 RMK A01 T02860162  RH  047%=      5-min Rain = 0
KSP2 141648Z 10006KT 28/16 A3021 RMK A01 T02840164  RH  048%=      5-min Rain = 0
KSP2 141649Z 09004KT 28/17 A3021 RMK A01 T02840165  RH  048%=      5-min Rain = 0
KSP2 141650Z 07003KT 29/17 A3021 RMK A01 T02890166  RH  047%=      5-min Rain = 0
KSP2 141651Z 09005KT 29/16 A3021 RMK A01 T02920163  RH  046%=      5-min Rain = 0
KSP2 141652Z 12004KT 29/16 A3021 RMK A01 T02900160  RH  045%=      5-min Rain = 0
KSP2 141653Z 11007KT 29/16 A3021 RMK A01 T02890159  RH  045%=      5-min Rain = 0
KSP2 141654Z 11006KT 29/16 A3021 RMK A01 T02890160  RH  046%=      5-min Rain = 0
KSP2 141655Z 07007KT 29/16 A3021 RMK A01 T02900159  RH  045%=      5-min Rain = 0
KSP2 141656Z 07004KT 29/16 A3021 RMK A01 T02920161  RH  045%=      5-min Rain = 0
KSP2 141657Z 09004KT 29/16 A3021 RMK A01 T02890161  RH  046%=      5-min Rain = 0
KSP2 141658Z 08005KT 29/16 A3021 RMK A01 T02880163  RH  047%=      5-min Rain = 0
KSP2 141659Z 08003KT 29/16 A3021 RMK A01 T02880162  RH  046%=      5-min Rain = 0
KSP2 141700Z 13002KT 29/16 A3021 RMK A01 T02880163  RH  047%=      5-min Rain = 0
KSP2 141701Z 10003KT 29/16 A3021 RMK A01 T02890161  RH  046%=      5-min Rain = 0
KSP2 141702Z 08004KT 29/16 A3021 RMK A01 T02910159  RH  045%=      5-min Rain = 0
KSP2 141703Z 04008KT 29/15 A3021 RMK A01 T02920153  RH  043%=      5-min Rain = 0
KSP2 141704Z 05006KT 30/15 A3021 RMK A01 T02950148  RH  041%=      5-min Rain = 0
KSP2 141705Z 04007KT 30/15 A3021 RMK A01 T02980147  RH  040%=      5-min Rain = 0
KSP2 141706Z 05005KT 30/15 A3021 RMK A01 T03000149  RH  040%=      5-min Rain = 0
KSP2 141707Z 06007G12KT 30/15 A3021 RMK A01 T03000152  RH  041%=      5-min Rain = 0
KSP2 141708Z 05008KT 30/15 A3022 RMK A01 T03020152  RH  040%=      5-min Rain = 0
KSP2 141709Z 07008KT 31/15 A3022 RMK A01 T03070151  RH  039%=      5-min Rain = 0
KSP2 141710Z 04006KT 31/15 A3022 RMK A01 T03060153  RH  040%=      5-min Rain = 0
KSP2 141711Z 04006KT 31/15 A3022 RMK A01 T03070151  RH  039%=      5-min Rain = 0
KSP2 141712Z 06005KT 31/15 A3022 RMK A01 T03050151  RH  039%=      5-min Rain = 0
KSP2 141713Z 06008KT 30/15 A3022 RMK A01 T03030149  RH  039%=      5-min Rain = 0
KSP2 141714Z 06010KT 31/14 A3022 RMK A01 T03060140  RH  036%=      5-min Rain = 0
KSP2 141715Z 06009KT 31/14 A3022 RMK A01 T03070143  RH  037%=      5-min Rain = 0
KSP2 141716Z 04007KT 31/15 A3022 RMK A01 T03060147  RH  038%=      5-min Rain = 0
KSP2 141717Z 04006KT 31/15 A3022 RMK A01 T03080149  RH  038%=      5-min Rain = 0
KSP2 141718Z 04008G13KT 31/15 A3022 RMK A01 T03120147  RH  037%=      5-min Rain = 0
KSP2 141719Z 03011KT 32/14 A3022 RMK A01 T03150142  RH  035%=      5-min Rain = 0
KSP2 141720Z 03010KT 31/14 A3022 RMK A01 T03140142  RH  035%=      5-min Rain = 0
KSP2 141721Z 03007KT 31/14 A3021 RMK A01 T03100138  RH  035%=      5-min Rain = 0
KSP2 141722Z 03008KT 31/14 A3021 RMK A01 T03080137  RH  035%=      5-min Rain = 0
KSP2 141723Z 03009KT 31/14 A3021 RMK A01 T03090135  RH  035%=      5-min Rain = 0
KSP2 141724Z 03009KT 31/13 A3021 RMK A01 T03110133  RH  034%=      5-min Rain = 0
KSP2 141725Z 03012KT 31/13 A3021 RMK A01 T03140127  RH  032%=      5-min Rain = 0
KSP2 141726Z 03008KT 31/13 A3021 RMK A01 T03130128  RH  032%=      5-min Rain = 0
KSP2 141727Z 03008KT 31/13 A3021 RMK A01 T03110134  RH  034%=      5-min Rain = 0
KSP2 141728Z 07009KT 31/14 A3021 RMK A01 T03100138  RH  035%=      5-min Rain = 0
KSP2 141729Z 07009KT 31/14 A3021 RMK A01 T03120137  RH  035%=      5-min Rain = 0
KSP2 141730Z 06006KT 31/14 A3021 RMK A01 T03120142  RH  036%=      5-min Rain = 0
KSP2 141731Z 04011G16KT 31/14 A3021 RMK A01 T03110138  RH  035%=      5-min Rain = 0
KSP2 141732Z 02011G16KT 32/13 A3021 RMK A01 T03150129  RH  032%=      5-min Rain = 0
KSP2 141733Z 04010KT 32/13 A3021 RMK A01 T03150131  RH  033%=      5-min Rain = 0
KSP2 141734Z 04008KT 31/13 A3021 RMK A01 T03110132  RH  034%=      5-min Rain = 0
KSP2 141735Z 02005KT 31/13 A3021 RMK A01 T03090130  RH  033%=      5-min Rain = 0
KSP2 141736Z 05004KT 31/13 A3021 RMK A01 T03090132  RH  034%=      5-min Rain = 0
KSP2 141737Z 04007KT 31/13 A3021 RMK A01 T03080133  RH  034%=      5-min Rain = 0
KSP2 141738Z 03008G14KT 31/14 A3021 RMK A01 T03110135  RH  034%=      5-min Rain = 0
KSP2 141739Z 02013KT 31/13 A3021 RMK A01 T03110129  RH  033%=      5-min Rain = 0
KSP2 141740Z 01008KT 31/12 A3021 RMK A01 T03120120  RH  031%=      5-min Rain = 0
KSP2 141741Z 01007KT 31/12 A3021 RMK A01 T03140121  RH  031%=      5-min Rain = 0
KSP2 141742Z 02007KT 32/12 A3021 RMK A01 T03160120  RH  030%=      5-min Rain = 0
KSP2 141743Z 02009KT 32/12 A3021 RMK A01 T03170124  RH  031%=      5-min Rain = 0
KSP2 141744Z 02009KT 32/12 A3021 RMK A01 T03190121  RH  030%=      5-min Rain = 0
KSP2 141745Z 03011KT 32/12 A3021 RMK A01 T03220118  RH  029%=      5-min Rain = 0
KSP2 141746Z 03013KT 32/12 A3021 RMK A01 T03240117  RH  028%=      5-min Rain = 0
KSP2 141747Z 04011KT 32/12 A3021 RMK A01 T03200121  RH  030%=      5-min Rain = 0
KSP2 141748Z 03010G16KT 32/12 A302 RMK A01 T03180121  RH  030%=      5-min Rain = 0
KSP2 141749Z 02010KT 32/12 A302 RMK A01 T03170121  RH  030%=      5-min Rain = 0
KSP2 141750Z 01011KT 32/12 A302 RMK A01 T03150124  RH  031%=      5-min Rain = 0
KSP2 141751Z 03011KT 32/12 A302 RMK A01 T03150124  RH  031%=      5-min Rain = 0
KSP2 141752Z 04009KT 32/13 A302 RMK A01 T03170126  RH  031%=      5-min Rain = 0
KSP2 141753Z 04009KT 32/13 A302 RMK A01 T03170127  RH  031%=      5-min Rain = 0
KSP2 141754Z 03010KT 32/13 A302 RMK A01 T03160126  RH  031%=      5-min Rain = 0
KSP2 141755Z 03010KT 32/13 A302 RMK A01 T03200126  RH  031%=      5-min Rain = 0
KSP2 141756Z 02008KT 32/12 A302 RMK A01 T03220124  RH  030%=      5-min Rain = 0
KSP2 141757Z 03012KT 32/13 A302 RMK A01 T03200127  RH  031%=      5-min Rain = 0
KSP2 141758Z 04011KT 32/13 A302 RMK A01 T03200126  RH  031%=      5-min Rain = 0
KSP2 141759Z 03006KT 32/13 A302 RMK A01 T03170127  RH  031%=      5-min Rain = 0
KSP2 141800Z 02005G10KT 31/13 A302 RMK A01 T03140127  RH  032%=      5-min Rain = 0
KSP2 141801Z 03012KT 31/13 A302 RMK A01 T03130128  RH  032%=      5-min Rain = 0
KSP2 141802Z 04012KT 31/13 A302 RMK A01 T03120131  RH  033%=      5-min Rain = 0
KSP2 141803Z 04008KT 31/13 A302 RMK A01 T03130128  RH  032%=      5-min Rain = 0
KSP2 141804Z 03010KT 31/13 A302 RMK A01 T03140130  RH  033%=      5-min Rain = 0
KSP2 141805Z 03009KT 31/13 A302 RMK A01 T03140133  RH  033%=      5-min Rain = 0
KSP2 141806Z 03007KT 31/13 A302 RMK A01 T03140134  RH  033%=      5-min Rain = 0
KSP2 141807Z 03007KT 32/13 A302 RMK A01 T03160133  RH  033%=      5-min Rain = 0
KSP2 141808Z 03011KT 32/13 A302 RMK A01 T03170134  RH  033%=      5-min Rain = 0
KSP2 141809Z 04010KT 32/13 A302 RMK A01 T03180133  RH  033%=      5-min Rain = 0
KSP2 141810Z 04007KT 32/13 A302 RMK A01 T03190132  RH  032%=      5-min Rain = 0
KSP2 141811Z 06010KT 32/13 A302 RMK A01 T03220130  RH  031%=      5-min Rain = 0
KSP2 141812Z 06008KT 32/13 A302 RMK A01 T03210128  RH  031%=      5-min Rain = 0
KSP2 141813Z 03010KT 32/13 A302 RMK A01 T03210129  RH  031%=      5-min Rain = 0
KSP2 141814Z 02011G16KT 32/13 A302 RMK A01 T03230128  RH  031%=      5-min Rain = 0
KSP2 141815Z 02012KT 32/13 A302 RMK A01 T03240125  RH  030%=      5-min Rain = 0
KSP2 141816Z 01011KT 32/12 A302 RMK A01 T03240124  RH  029%=      5-min Rain = 0
KSP2 141817Z 02010KT 32/13 A302 RMK A01 T03210125  RH  030%=      5-min Rain = 0
KSP2 141818Z 04008KT 32/13 A302 RMK A01 T03200125  RH  030%=      5-min Rain = 0
KSP2 141819Z 03007KT 32/12 A302 RMK A01 T03190123  RH  030%=      5-min Rain = 0
KSP2 141820Z 03010KT 32/13 A302 RMK A01 T03180125  RH  031%=      5-min Rain = 0
KSP2 141821Z 03010KT 32/13 A302 RMK A01 T03190125  RH  031%=      5-min Rain = 0
KSP2 141822Z 03014KT 32/13 A302 RMK A01 T03200126  RH  031%=      5-min Rain = 0
KSP2 141823Z 03010KT 32/12 A302 RMK A01 T03200124  RH  030%=      5-min Rain = 0
KSP2 141824Z 05009KT 32/13 A302 RMK A01 T03200126  RH  031%=      5-min Rain = 0
KSP2 141825Z 05010KT 33/12 A302 RMK A01 T03250123  RH  029%=      5-min Rain = 0
KSP2 141826Z 06009KT 33/12 A302 RMK A01 T03250121  RH  029%=      5-min Rain = 0
KSP2 141827Z 03005KT 32/12 A302 RMK A01 T03210120  RH  029%=      5-min Rain = 0
KSP2 141828Z 02005KT 32/12 A302 RMK A01 T03200119  RH  029%=      5-min Rain = 0
KSP2 141829Z 02005KT 32/13 A302 RMK A01 T03210125  RH  030%=      5-min Rain = 0
KSP2 141830Z 03005KT 32/13 A302 RMK A01 T03240129  RH  031%=      5-min Rain = 0
KSP2 141831Z 04007KT 33/13 A302 RMK A01 T03270130  RH  030%=      5-min Rain = 0
KSP2 141832Z 05009KT 33/13 A302 RMK A01 T03290131  RH  030%=      5-min Rain = 0
KSP2 141833Z 06011KT 33/13 A302 RMK A01 T03280131  RH  030%=      5-min Rain = 0
KSP2 141834Z 05010KT 33/13 A302 RMK A01 T03270132  RH  031%=      5-min Rain = 0
KSP2 141835Z 06008KT 33/13 A302 RMK A01 T03270134  RH  031%=      5-min Rain = 0
KSP2 141836Z 03010KT 33/13 A302 RMK A01 T03260134  RH  031%=      5-min Rain = 0
KSP2 141837Z 03011KT 33/13 A302 RMK A01 T03270133  RH  031%=      5-min Rain = 0
KSP2 141838Z 03011KT 33/13 A302 RMK A01 T03250134  RH  031%=      5-min Rain = 0
KSP2 141839Z 04010KT 32/13 A302 RMK A01 T03240133  RH  031%=      5-min Rain = 0
KSP2 141840Z 05010KT 32/13 A302 RMK A01 T03230132  RH  031%=      5-min Rain = 0
KSP2 141841Z 03008KT 32/13 A302 RMK A01 T03230134  RH  032%=      5-min Rain = 0
KSP2 141842Z 03010KT 32/14 A302 RMK A01 T03230138  RH  032%=      5-min Rain = 0
KSP2 141843Z 04006KT 32/14 A302 RMK A01 T03210138  RH  033%=      5-min Rain = 0
KSP2 141844Z 01005KT 32/14 A302 RMK A01 T03190139  RH  034%=      5-min Rain = 0
KSP2 141845Z 35007KT 32/14 A302 RMK A01 T03220139  RH  033%=      5-min Rain = 0
KSP2 141846Z 03008KT 32/14 A302 RMK A01 T03230139  RH  033%=      5-min Rain = 0
KSP2 141847Z 02009KT 32/14 A302 RMK A01 T03230140  RH  033%=      5-min Rain = 0
KSP2 141848Z 00013KT 32/14 A302 RMK A01 T03240140  RH  033%=      5-min Rain = 0
KSP2 141849Z 36010KT 32/14 A302 RMK A01 T03230139  RH  033%=      5-min Rain = 0
KSP2 141850Z 00010KT 32/14 A302 RMK A01 T03230140  RH  033%=      5-min Rain = 0
KSP2 141851Z 02007KT 33/14 A302 RMK A01 T03250141  RH  033%=      5-min Rain = 0
KSP2 141852Z 36011KT 33/14 A302 RMK A01 T03270140  RH  032%=      5-min Rain = 0
KSP2 141853Z 36011KT 33/14 A302 RMK A01 T03250138  RH  032%=      5-min Rain = 0
KSP2 141854Z 36010G17KT 32/14 A3019 RMK A01 T03210136  RH  033%=      5-min Rain = 0
KSP2 141855Z 06012KT 32/14 A3019 RMK A01 T03230138  RH  033%=      5-min Rain = 0
KSP2 141856Z 05011KT 32/14 A302 RMK A01 T03240138  RH  032%=      5-min Rain = 0
KSP2 141857Z 05009KT 33/14 A302 RMK A01 T03250137  RH  032%=      5-min Rain = 0
KSP2 141858Z 04010KT 33/14 A3019 RMK A01 T03270135  RH  031%=      5-min Rain = 0
KSP2 141859Z 04009KT 33/13 A3019 RMK A01 T03260133  RH  031%=      5-min Rain = 0
KSP2 141900Z 06007KT 32/13 A3019 RMK A01 T03230133  RH  032%=      5-min Rain = 0
KSP2 141901Z 07006KT 32/13 A3019 RMK A01 T03230134  RH  032%=      5-min Rain = 0
KSP2 141902Z 09007KT 32/13 A3019 RMK A01 T03240133  RH  031%=      5-min Rain = 0
KSP2 141903Z 10008KT 33/13 A3019 RMK A01 T03250133  RH  031%=      5-min Rain = 0
KSP2 141904Z 09008KT 32/13 A3019 RMK A01 T03240134  RH  032%=      5-min Rain = 0
KSP2 141905Z 07006KT 32/13 A3019 RMK A01 T03210134  RH  032%=      5-min Rain = 0
KSP2 141906Z 07007KT 32/14 A3019 RMK A01 T03240135  RH  032%=      5-min Rain = 0
KSP2 141907Z 04010KT 33/14 A3019 RMK A01 T03270136  RH  031%=      5-min Rain = 0
KSP2 141908Z 03011KT 33/14 A3019 RMK A01 T03280136  RH  031%=      5-min Rain = 0
KSP2 141909Z 05011KT 33/14 A3019 RMK A01 T03270138  RH  032%=      5-min Rain = 0
KSP2 141910Z 06008KT 33/14 A3019 RMK A01 T03280137  RH  031%=      5-min Rain = 0
KSP2 141911Z 06012KT 33/14 A3019 RMK A01 T03280137  RH  031%=      5-min Rain = 0
KSP2 141912Z 05012KT 32/14 A3019 RMK A01 T03240138  RH  032%=      5-min Rain = 0
KSP2 141913Z 05008KT 32/14 A3019 RMK A01 T03220138  RH  033%=      5-min Rain = 0
KSP2 141914Z 05006KT 32/14 A3019 RMK A01 T03220135  RH  032%=      5-min Rain = 0
KSP2 141915Z 04005KT 32/13 A3019 RMK A01 T03210134  RH  032%=      5-min Rain = 0
KSP2 141916Z 35003KT 32/13 A3019 RMK A01 T03220130  RH  031%=      5-min Rain = 0
KSP2 141917Z 01006KT 32/13 A3019 RMK A01 T03220132  RH  031%=      5-min Rain = 0
KSP2 141918Z 03009G14KT 32/13 A3019 RMK A01 T03240133  RH  031%=      5-min Rain = 0
KSP2 141919Z 05007KT 33/14 A3019 RMK A01 T03260135  RH  031%=      5-min Rain = 0
KSP2 141920Z 05007KT 32/13 A3019 RMK A01 T03240134  RH  032%=      5-min Rain = 0
KSP2 141921Z 04002KT 32/13 A3019 RMK A01 T03170132  RH  032%=      5-min Rain = 0
KSP2 141922Z 07004KT 32/13 A3019 RMK A01 T03150134  RH  033%=      5-min Rain = 0
KSP2 141923Z 08005KT 32/14 A3018 RMK A01 T03190136  RH  033%=      5-min Rain = 0
KSP2 141924Z 09010KT 33/14 A3018 RMK A01 T03260135  RH  031%=      5-min Rain = 0
KSP2 141925Z 09010KT 33/13 A3018 RMK A01 T03260134  RH  031%=      5-min Rain = 0
KSP2 141926Z 09011KT 33/13 A3018 RMK A01 T03270133  RH  031%=      5-min Rain = 0
KSP2 141927Z 10009KT 33/13 A3018 RMK A01 T03270133  RH  031%=      5-min Rain = 0
KSP2 141928Z 12007KT 32/13 A3018 RMK A01 T03240131  RH  031%=      5-min Rain = 0
KSP2 141929Z 09009KT 32/13 A3018 RMK A01 T03210132  RH  032%=      5-min Rain = 0
KSP2 141930Z 08008KT 32/13 A3018 RMK A01 T03230131  RH  031%=      5-min Rain = 0
KSP2 141931Z 10008KT 33/13 A3018 RMK A01 T03260130  RH  030%=      5-min Rain = 0
KSP2 141932Z 09006KT 33/13 A3018 RMK A01 T03290130  RH  030%=      5-min Rain = 0
KSP2 141933Z 10007KT 33/13 A3017 RMK A01 T03260131  RH  031%=      5-min Rain = 0
KSP2 141934Z 08007KT 32/13 A3017 RMK A01 T03230130  RH  031%=      5-min Rain = 0
KSP2 141935Z 05008KT 32/13 A3017 RMK A01 T03220130  RH  031%=      5-min Rain = 0
KSP2 141936Z 07007KT 32/13 A3017 RMK A01 T03230129  RH  031%=      5-min Rain = 0
KSP2 141937Z 05007KT 32/13 A3017 RMK A01 T03220131  RH  031%=      5-min Rain = 0
KSP2 141938Z 05005KT 32/13 A3017 RMK A01 T03220130  RH  031%=      5-min Rain = 0
KSP2 141939Z 05003KT 32/13 A3017 RMK A01 T03220130  RH  031%=      5-min Rain = 0
KSP2 141940Z 08003KT 32/13 A3017 RMK A01 T03240132  RH  031%=      5-min Rain = 0
KSP2 141941Z 10003KT 33/13 A3017 RMK A01 T03250134  RH  031%=      5-min Rain = 0
KSP2 141942Z 12003KT 33/13 A3017 RMK A01 T03270133  RH  031%=      5-min Rain = 0
KSP2 141943Z 07004KT 33/13 A3017 RMK A01 T03290134  RH  031%=      5-min Rain = 0
KSP2 141944Z 06002KT 33/13 A3017 RMK A01 T03310133  RH  030%=      5-min Rain = 0
KSP2 141945Z 04001KT 33/13 A3017 RMK A01 T03310134  RH  030%=      5-min Rain = 0
KSP2 141946Z 05006KT 33/13 A3017 RMK A01 T03330132  RH  030%=      5-min Rain = 0
KSP2 141947Z 03005KT 33/13 A3017 RMK A01 T03330131  RH  029%=      5-min Rain = 0
KSP2 141948Z 06005KT 33/13 A3017 RMK A01 T03340132  RH  029%=      5-min Rain = 0
KSP2 141949Z 08005KT 34/13 A3017 RMK A01 T03360134  RH  029%=      5-min Rain = 0
KSP2 141950Z 05003KT 34/13 A3017 RMK A01 T03380131  RH  029%=      5-min Rain = 0
KSP2 141951Z 05005KT 34/13 A3017 RMK A01 T03370132  RH  029%=      5-min Rain = 0
KSP2 141952Z 04008KT 34/13 A3017 RMK A01 T03360131  RH  029%=      5-min Rain = 0
KSP2 141953Z 03006KT 33/13 A3017 RMK A01 T03340129  RH  029%=      5-min Rain = 0
KSP2 141954Z 03007KT 33/13 A3017 RMK A01 T03320128  RH  029%=      5-min Rain = 0
KSP2 141955Z 03006KT 33/13 A3017 RMK A01 T03320127  RH  029%=      5-min Rain = 0
KSP2 141956Z 08005KT 33/13 A3017 RMK A01 T03260126  RH  030%=      5-min Rain = 0
KSP2 141957Z 09007KT 32/12 A3016 RMK A01 T03230119  RH  029%=      5-min Rain = 0
KSP2 141958Z 08007KT 32/12 A3016 RMK A01 T03200120  RH  029%=      5-min Rain = 0
KSP2 141959Z 08004KT 32/12 A3016 RMK A01 T03210118  RH  029%=      5-min Rain = 0
KSP2 142000Z 07003KT 32/12 A3016 RMK A01 T03230122  RH  029%=      5-min Rain = 0
KSP2 142001Z 04004KT 33/12 A3016 RMK A01 T03250121  RH  029%=      5-min Rain = 0
KSP2 142002Z 10003G8KT 33/12 A3016 RMK A01 T03290122  RH  028%=      5-min Rain = 0
KSP2 142003Z 12006KT 33/13 A3016 RMK A01 T03300129  RH  029%=      5-min Rain = 0
KSP2 142004Z 11008KT 33/13 A3015 RMK A01 T03300133  RH  030%=      5-min Rain = 0
KSP2 142005Z 10007KT 33/14 A3015 RMK A01 T03280135  RH  031%=      5-min Rain = 0
KSP2 142006Z 08003KT 33/14 A3015 RMK A01 T03280135  RH  031%=      5-min Rain = 0
KSP2 142007Z 10002KT 33/13 A3015 RMK A01 T03270133  RH  031%=      5-min Rain = 0
KSP2 142008Z 07009KT 33/13 A3015 RMK A01 T03280133  RH  031%=      5-min Rain = 0
KSP2 142009Z 05004KT 33/13 A3015 RMK A01 T03280131  RH  030%=      5-min Rain = 0
KSP2 142010Z 04003KT 33/13 A3015 RMK A01 T03280132  RH  031%=      5-min Rain = 0
KSP2 142011Z 08004G10KT 33/14 A3015 RMK A01 T03320136  RH  031%=      5-min Rain = 0
KSP2 142012Z 08008KT 34/14 A3015 RMK A01 T03350138  RH  030%=      5-min Rain = 0
KSP2 142013Z 08008KT 34/14 A3015 RMK A01 T03370139  RH  030%=      5-min Rain = 0
KSP2 142014Z 08007KT 34/14 A3015 RMK A01 T03360139  RH  030%=      5-min Rain = 0
KSP2 142015Z 08006KT 34/14 A3015 RMK A01 T03380140  RH  030%=      5-min Rain = 0
KSP2 142016Z 10006KT 34/14 A3014 RMK A01 T03380138  RH  030%=      5-min Rain = 0
KSP2 142017Z 10008KT 33/14 A3014 RMK A01 T03340137  RH  030%=      5-min Rain = 0
KSP2 142018Z 09008KT 33/14 A3014 RMK A01 T03320136  RH  031%=      5-min Rain = 0
KSP2 142019Z 09004KT 33/14 A3014 RMK A01 T03300135  RH  031%=      5-min Rain = 0
KSP2 142020Z 10000KT 33/13 A3014 RMK A01 T03270133  RH  031%=      5-min Rain = 0
KSP2 142021Z 08004KT 33/14 A3014 RMK A01 T03250135  RH  032%=      5-min Rain = 0
KSP2 142022Z 05004KT 33/14 A3014 RMK A01 T03260137  RH  032%=      5-min Rain = 0
KSP2 142023Z 05003KT 33/14 A3014 RMK A01 T03270136  RH  031%=      5-min Rain = 0
KSP2 142024Z 14003KT 33/14 A3014 RMK A01 T03300136  RH  031%=      5-min Rain = 0
KSP2 142025Z 14007KT 33/14 A3014 RMK A01 T03320137  RH  031%=      5-min Rain = 0
KSP2 142026Z 15005KT 33/14 A3014 RMK A01 T03310136  RH  031%=      5-min Rain = 0
KSP2 142027Z 13009KT 33/14 A3014 RMK A01 T03310136  RH  031%=      5-min Rain = 0
KSP2 142028Z 13009KT 33/14 A3014 RMK A01 T03290136  RH  031%=      5-min Rain = 0
KSP2 142029Z 15008KT 33/14 A3014 RMK A01 T03280136  RH  031%=      5-min Rain = 0
KSP2 142030Z 14007KT 33/14 A3014 RMK A01 T03280136  RH  031%=      5-min Rain = 0
KSP2 142031Z 09003KT 33/14 A3014 RMK A01 T03280137  RH  031%=      5-min Rain = 0
KSP2 142032Z 03003KT 33/13 A3014 RMK A01 T03320134  RH  030%=      5-min Rain = 0
KSP2 142033Z 05003KT 33/14 A3014 RMK A01 T03310135  RH  030%=      5-min Rain = 0
KSP2 142034Z 06004KT 33/14 A3014 RMK A01 T03300135  RH  031%=      5-min Rain = 0
KSP2 142035Z 06008KT 33/14 A3013 RMK A01 T03310135  RH  031%=      5-min Rain = 0
KSP2 142036Z 11008KT 34/14 A3013 RMK A01 T03360137  RH  030%=      5-min Rain = 0
KSP2 142037Z 09005KT 34/14 A3014 RMK A01 T03360138  RH  030%=      5-min Rain = 0
KSP2 142038Z 06006KT 34/13 A3014 RMK A01 T03350134  RH  030%=      5-min Rain = 0
KSP2 142039Z 06007KT 33/14 A3014 RMK A01 T03340135  RH  030%=      5-min Rain = 0
KSP2 142040Z 07002KT 34/14 A3014 RMK A01 T03350135  RH  030%=      5-min Rain = 0
KSP2 142041Z 03004KT 34/14 A3014 RMK A01 T03360135  RH  030%=      5-min Rain = 0
KSP2 142042Z 06004G10KT 34/14 A3014 RMK A01 T03360135  RH  030%=      5-min Rain = 0
KSP2 142043Z 08006KT 34/14 A3013 RMK A01 T03360135  RH  030%=      5-min Rain = 0
KSP2 142044Z 06007KT 34/14 A3013 RMK A01 T03360136  RH  030%=      5-min Rain = 0
KSP2 142045Z 04009KT 34/14 A3013 RMK A01 T03400135  RH  029%=      5-min Rain = 0
KSP2 142046Z 05008KT 34/13 A3013 RMK A01 T03410133  RH  029%=      5-min Rain = 0
KSP2 142047Z 07006KT 34/13 A3013 RMK A01 T03390134  RH  029%=      5-min Rain = 0
KSP2 142048Z 05005KT 34/13 A3013 RMK A01 T03370133  RH  029%=      5-min Rain = 0
KSP2 142049Z 07005KT 34/13 A3013 RMK A01 T03370132  RH  029%=      5-min Rain = 0
KSP2 142050Z 05004KT 34/13 A3013 RMK A01 T03360132  RH  029%=      5-min Rain = 0
KSP2 142051Z 05006KT 34/13 A3013 RMK A01 T03370131  RH  029%=      5-min Rain = 0
KSP2 142052Z 05006KT 34/13 A3013 RMK A01 T03360128  RH  028%=      5-min Rain = 0
KSP2 142053Z 02004KT 34/13 A3013 RMK A01 T03350126  RH  028%=      5-min Rain = 0
KSP2 142054Z 01004KT 34/13 A3013 RMK A01 T03350127  RH  028%=      5-min Rain = 0
KSP2 142055Z 02005KT 34/13 A3013 RMK A01 T03360126  RH  028%=      5-min Rain = 0
KSP2 142056Z 02004KT 34/13 A3013 RMK A01 T03350128  RH  028%=      5-min Rain = 0
KSP2 142057Z 05002KT 33/13 A3013 RMK A01 T03340125  RH  028%=      5-min Rain = 0
KSP2 142058Z 15001KT 33/13 A3013 RMK A01 T03330127  RH  029%=      5-min Rain = 0
KSP2 142059Z 01004KT 34/13 A3013 RMK A01 T03380130  RH  029%=      5-min Rain = 0
KSP2 142100Z 33002KT 34/13 A3013 RMK A01 T03380130  RH  029%=      5-min Rain = 0
KSP2 142101Z 01003KT 34/13 A3013 RMK A01 T03350131  RH  029%=      5-min Rain = 0
KSP2 142102Z 05007KT 33/13 A3013 RMK A01 T03330134  RH  030%=      5-min Rain = 0
KSP2 142103Z 06006KT 33/14 A3013 RMK A01 T03330136  RH  030%=      5-min Rain = 0
KSP2 142104Z 09007KT 34/14 A3013 RMK A01 T03370138  RH  030%=      5-min Rain = 0
KSP2 142105Z 10007KT 34/14 A3013 RMK A01 T03390137  RH  030%=      5-min Rain = 0
KSP2 142106Z 11004KT 34/14 A3013 RMK A01 T03370138  RH  030%=      5-min Rain = 0
KSP2 142107Z 08003KT 34/14 A3013 RMK A01 T03380137  RH  030%=      5-min Rain = 0
KSP2 142108Z 06005KT 34/14 A3013 RMK A01 T03370137  RH  030%=      5-min Rain = 0
KSP2 142109Z 04005KT 34/14 A3012 RMK A01 T03370136  RH  030%=      5-min Rain = 0
KSP2 142110Z 10006KT 34/13 A3012 RMK A01 T03370133  RH  029%=      5-min Rain = 0
KSP2 142111Z 07011G16KT 34/13 A3012 RMK A01 T03350134  RH  030%=      5-min Rain = 0
KSP2 142112Z 08005KT 33/13 A3012 RMK A01 T03330133  RH  030%=      5-min Rain = 0
KSP2 142113Z 07009KT 33/13 A3012 RMK A01 T03300133  RH  030%=      5-min Rain = 0
KSP2 142114Z 07007KT 33/13 A3012 RMK A01 T03330132  RH  030%=      5-min Rain = 0
KSP2 142115Z 05006KT 34/13 A3012 RMK A01 T03350132  RH  029%=      5-min Rain = 0
KSP2 142116Z 05002KT 34/13 A3012 RMK A01 T03370131  RH  029%=      5-min Rain = 0
KSP2 142117Z 04002KT 34/13 A3012 RMK A01 T03400132  RH  029%=      5-min Rain = 0
KSP2 142118Z 07005KT 34/13 A3012 RMK A01 T03440134  RH  028%=      5-min Rain = 0
KSP2 142119Z 06007KT 35/13 A3012 RMK A01 T03480133  RH  027%=      5-min Rain = 0
KSP2 142120Z 08008KT 35/13 A3012 RMK A01 T03470132  RH  027%=      5-min Rain = 0
KSP2 142121Z 09006KT 34/14 A3012 RMK A01 T03410135  RH  029%=      5-min Rain = 0
KSP2 142122Z 09003KT 34/14 A3012 RMK A01 T03360136  RH  030%=      5-min Rain = 0
KSP2 142123Z 03003KT 34/14 A3012 RMK A01 T03360137  RH  030%=      5-min Rain = 0
KSP2 142124Z 04008KT 34/14 A3012 RMK A01 T03390137  RH  030%=      5-min Rain = 0
KSP2 142125Z 03008KT 34/14 A3012 RMK A01 T03410136  RH  029%=      5-min Rain = 0
KSP2 142126Z 04009KT 34/14 A3012 RMK A01 T03390137  RH  030%=      5-min Rain = 0
KSP2 142127Z 06011KT 34/14 A3012 RMK A01 T03400135  RH  029%=      5-min Rain = 0
KSP2 142128Z 04007KT 34/14 A3012 RMK A01 T03380136  RH  029%=      5-min Rain = 0
KSP2 142129Z 01006KT 34/14 A3012 RMK A01 T03370136  RH  030%=      5-min Rain = 0
KSP2 142130Z 03003KT 34/14 A3012 RMK A01 T03390136  RH  029%=      5-min Rain = 0
KSP2 142131Z 03003KT 34/14 A3012 RMK A01 T03410136  RH  029%=      5-min Rain = 0
KSP2 142132Z 08004KT 34/14 A3012 RMK A01 T03420136  RH  029%=      5-min Rain = 0
KSP2 142133Z 09007KT 34/14 A3012 RMK A01 T03420136  RH  029%=      5-min Rain = 0
KSP2 142134Z 09007KT 34/14 A3012 RMK A01 T03420136  RH  029%=      5-min Rain = 0
KSP2 142135Z 09004KT 34/14 A3012 RMK A01 T03420136  RH  029%=      5-min Rain = 0
KSP2 142136Z 11006KT 34/13 A3012 RMK A01 T03430133  RH  028%=      5-min Rain = 0
KSP2 142137Z 10005KT 34/13 A3012 RMK A01 T03390132  RH  029%=      5-min Rain = 0
KSP2 142138Z 07008KT 34/14 A3012 RMK A01 T03360136  RH  030%=      5-min Rain = 0
KSP2 142139Z 07007KT 34/14 A3012 RMK A01 T03370137  RH  030%=      5-min Rain = 0
KSP2 142140Z 10006KT 34/14 A3012 RMK A01 T03380138  RH  030%=      5-min Rain = 0
KSP2 142141Z 09007KT 34/14 A3012 RMK A01 T03360140  RH  031%=      5-min Rain = 0
KSP2 142142Z 09008KT 34/14 A3012 RMK A01 T03360141  RH  031%=      5-min Rain = 0
KSP2 142143Z 09007KT 34/14 A3012 RMK A01 T03360141  RH  031%=      5-min Rain = 0
KSP2 142144Z 07005KT 34/14 A3012 RMK A01 T03350141  RH  031%=      5-min Rain = 0
KSP2 142145Z 04004KT 34/14 A3012 RMK A01 T03380140  RH  030%=      5-min Rain = 0
KSP2 142146Z 04006KT 34/14 A3012 RMK A01 T03380138  RH  030%=      5-min Rain = 0
KSP2 142147Z 05006KT 34/14 A3012 RMK A01 T03370138  RH  030%=      5-min Rain = 0
KSP2 142148Z 05007KT 34/14 A3012 RMK A01 T03370138  RH  030%=      5-min Rain = 0
KSP2 142149Z 05007KT 34/14 A3012 RMK A01 T03360139  RH  031%=      5-min Rain = 0
KSP2 142150Z 08008KT 34/14 A3012 RMK A01 T03360140  RH  031%=      5-min Rain = 0
KSP2 142151Z 08007KT 34/14 A3012 RMK A01 T03380140  RH  030%=      5-min Rain = 0
KSP2 142152Z 06003G8KT 33/14 A3011 RMK A01 T03340139  RH  031%=      5-min Rain = 0
KSP2 142153Z 05006KT 33/14 A3011 RMK A01 T03340139  RH  031%=      5-min Rain = 0
KSP2 142154Z 05005G10KT 34/14 A3011 RMK A01 T03350139  RH  031%=      5-min Rain = 0
KSP2 142155Z 05007KT 34/14 A3011 RMK A01 T03360139  RH  031%=      5-min Rain = 0
KSP2 142156Z 05006KT 34/14 A3011 RMK A01 T03350137  RH  030%=      5-min Rain = 0
KSP2 142157Z 06004KT 33/14 A3011 RMK A01 T03340138  RH  031%=      5-min Rain = 0
KSP2 142158Z 09007KT 33/14 A3011 RMK A01 T03330138  RH  031%=      5-min Rain = 0
KSP2 142159Z 11006KT 33/14 A3011 RMK A01 T03340137  RH  030%=      5-min Rain = 0
KSP2 142200Z 11003KT 33/14 A3011 RMK A01 T03310135  RH  031%=      5-min Rain = 0
KSP2 142201Z 11006KT 33/14 A3011 RMK A01 T03300137  RH  031%=      5-min Rain = 0
KSP2 142202Z 10009KT 33/14 A3011 RMK A01 T03330138  RH  031%=      5-min Rain = 0
KSP2 142203Z 11007KT 33/14 A3011 RMK A01 T03340138  RH  031%=      5-min Rain = 0
KSP2 142204Z 13006KT 34/14 A3011 RMK A01 T03350139  RH  031%=      5-min Rain = 0
KSP2 142205Z 09004KT 34/14 A3011 RMK A01 T03370139  RH  030%=      5-min Rain = 0
KSP2 142206Z 07006KT 34/14 A3011 RMK A01 T03370138  RH  030%=      5-min Rain = 0
KSP2 142207Z 06007KT 34/14 A3011 RMK A01 T03370136  RH  030%=      5-min Rain = 0
KSP2 142208Z 07008KT 34/14 A3011 RMK A01 T03360135  RH  030%=      5-min Rain = 0
KSP2 142209Z 08006KT 34/13 A3011 RMK A01 T03370134  RH  029%=      5-min Rain = 0
KSP2 142210Z 05008KT 34/14 A3011 RMK A01 T03400135  RH  029%=      5-min Rain = 0
KSP2 142211Z 07005KT 34/13 A3011 RMK A01 T03420133  RH  028%=      5-min Rain = 0
KSP2 142212Z 10004KT 34/13 A3011 RMK A01 T03410134  RH  029%=      5-min Rain = 0
KSP2 142213Z 06007KT 34/14 A3011 RMK A01 T03380135  RH  029%=      5-min Rain = 0
KSP2 142214Z 07004KT 34/13 A3011 RMK A01 T03370134  RH  029%=      5-min Rain = 0
KSP2 142215Z 10004KT 34/13 A3011 RMK A01 T03370134  RH  029%=      5-min Rain = 0
KSP2 142216Z 12005KT 34/13 A3011 RMK A01 T03360134  RH  030%=      5-min Rain = 0
KSP2 142217Z 07005KT 34/14 A3011 RMK A01 T03370135  RH  030%=      5-min Rain = 0
KSP2 142218Z 08005KT 34/13 A3011 RMK A01 T03390133  RH  029%=      5-min Rain = 0
KSP2 142219Z 05004KT 34/13 A3011 RMK A01 T03360131  RH  029%=      5-min Rain = 0
KSP2 142220Z 03004KT 34/13 A3011 RMK A01 T03350132  RH  029%=      5-min Rain = 0
KSP2 142221Z 04004KT 34/13 A3011 RMK A01 T03370132  RH  029%=      5-min Rain = 0
KSP2 142222Z 03004KT 34/13 A3011 RMK A01 T03410133  RH  028%=      5-min Rain = 0
KSP2 142223Z 05004KT 34/13 A3011 RMK A01 T03430133  RH  028%=      5-min Rain = 0
KSP2 142224Z 06008KT 34/13 A3011 RMK A01 T03440132  RH  028%=      5-min Rain = 0
KSP2 142225Z 06006KT 34/13 A3011 RMK A01 T03430130  RH  028%=      5-min Rain = 0
KSP2 142226Z 08004KT 34/13 A3011 RMK A01 T03390130  RH  028%=      5-min Rain = 0
KSP2 142227Z 07004KT 34/13 A3011 RMK A01 T03360130  RH  029%=      5-min Rain = 0
KSP2 142228Z 07005KT 34/13 A3011 RMK A01 T03360130  RH  029%=      5-min Rain = 0
KSP2 142229Z 10006KT 34/13 A3011 RMK A01 T03360130  RH  029%=      5-min Rain = 0
KSP2 142230Z 08005KT 34/13 A3011 RMK A01 T03350130  RH  029%=      5-min Rain = 0
KSP2 142231Z 09006KT 34/13 A3011 RMK A01 T03350129  RH  029%=      5-min Rain = 0
KSP2 142232Z 10004KT 34/13 A3011 RMK A01 T03350129  RH  029%=      5-min Rain = 0
KSP2 142233Z 06005KT 33/13 A3011 RMK A01 T03340130  RH  029%=      5-min Rain = 0
KSP2 142234Z 07007KT 34/13 A3011 RMK A01 T03370130  RH  029%=      5-min Rain = 0
KSP2 142235Z 08006KT 34/13 A3011 RMK A01 T03370129  RH  028%=      5-min Rain = 0
KSP2 142236Z 05006KT 34/13 A3011 RMK A01 T03350129  RH  029%=      5-min Rain = 0
KSP2 142237Z 05007KT 34/13 A3011 RMK A01 T03370130  RH  028%=      5-min Rain = 0
KSP2 142238Z 06004KT 34/13 A3011 RMK A01 T03400128  RH  028%=      5-min Rain = 0
KSP2 142239Z 04004KT 34/13 A3011 RMK A01 T03390128  RH  028%=      5-min Rain = 0
KSP2 142240Z 05003KT 34/13 A3011 RMK A01 T03370128  RH  028%=      5-min Rain = 0
KSP2 142241Z 05004KT 34/13 A3011 RMK A01 T03370129  RH  029%=      5-min Rain = 0
KSP2 142242Z 06007KT 34/13 A3011 RMK A01 T03360129  RH  029%=      5-min Rain = 0
KSP2 142243Z 05008KT 34/13 A3011 RMK A01 T03360129  RH  028%=      5-min Rain = 0
KSP2 142244Z 07006KT 34/13 A3011 RMK A01 T03370128  RH  028%=      5-min Rain = 0
KSP2 142245Z 07007KT 34/13 A3011 RMK A01 T03350128  RH  028%=      5-min Rain = 0
KSP2 142246Z 07005KT 33/13 A301 RMK A01 T03330127  RH  029%=      5-min Rain = 0
KSP2 142247Z 07003KT 33/13 A301 RMK A01 T03320127  RH  029%=      5-min Rain = 0
KSP2 142248Z 10004KT 33/13 A301 RMK A01 T03320127  RH  029%=      5-min Rain = 0
KSP2 142249Z 10006KT 33/13 A301 RMK A01 T03320128  RH  029%=      5-min Rain = 0
KSP2 142250Z 10006KT 33/13 A301 RMK A01 T03320127  RH  029%=      5-min Rain = 0
KSP2 142251Z 07009KT 34/13 A301 RMK A01 T03350129  RH  029%=      5-min Rain = 0
KSP2 142252Z 06008KT 34/13 A301 RMK A01 T03360129  RH  029%=      5-min Rain = 0
KSP2 142253Z 07007KT 34/13 A301 RMK A01 T03350128  RH  028%=      5-min Rain = 0
KSP2 142254Z 10006KT 33/13 A301 RMK A01 T03340129  RH  029%=      5-min Rain = 0
KSP2 142255Z 09004KT 33/13 A301 RMK A01 T03330127  RH  029%=      5-min Rain = 0
KSP2 142256Z 08003KT 33/13 A301 RMK A01 T03320128  RH  029%=      5-min Rain = 0
KSP2 142257Z 09003KT 33/13 A301 RMK A01 T03330129  RH  029%=      5-min Rain = 0
KSP2 142258Z 13003KT 33/13 A301 RMK A01 T03340129  RH  029%=      5-min Rain = 0
KSP2 142259Z 15003KT 34/13 A301 RMK A01 T03370130  RH  029%=      5-min Rain = 0
KSP2 142300Z 15001KT 34/13 A301 RMK A01 T03380129  RH  028%=      5-min Rain = 0
KSP2 142301Z 14001KT 34/13 A301 RMK A01 T03390130  RH  028%=      5-min Rain = 0
KSP2 142302Z 16001KT 34/13 A301 RMK A01 T03410130  RH  028%=      5-min Rain = 0
KSP2 142303Z 05000KT 34/13 A301 RMK A01 T03430131  RH  028%=      5-min Rain = 0
KSP2 142304Z 08002KT 34/13 A301 RMK A01 T03440131  RH  028%=      5-min Rain = 0
KSP2 142305Z 08006KT 34/13 A301 RMK A01 T03440133  RH  028%=      5-min Rain = 0
KSP2 142306Z 10003KT 34/13 A301 RMK A01 T03410130  RH  028%=      5-min Rain = 0
KSP2 142307Z 10002KT 34/13 A301 RMK A01 T03380129  RH  028%=      5-min Rain = 0
KSP2 142308Z 10004KT 34/13 A301 RMK A01 T03360130  RH  029%=      5-min Rain = 0
KSP2 142309Z 08004KT 34/13 A301 RMK A01 T03360131  RH  029%=      5-min Rain = 0
KSP2 142310Z 06005KT 34/13 A301 RMK A01 T03350131  RH  029%=      5-min Rain = 0
KSP2 142311Z 03006KT 34/13 A3011 RMK A01 T03360132  RH  029%=      5-min Rain = 0
KSP2 142312Z 04008KT 34/13 A3011 RMK A01 T03350133  RH  030%=      5-min Rain = 0
KSP2 142313Z 01007KT 34/13 A3011 RMK A01 T03350132  RH  029%=      5-min Rain = 0
KSP2 142314Z 36005KT 34/13 A3011 RMK A01 T03350133  RH  029%=      5-min Rain = 0
KSP2 142315Z 00007KT 34/13 A3011 RMK A01 T03360132  RH  029%=      5-min Rain = 0
KSP2 142316Z 04006KT 34/13 A3011 RMK A01 T03360132  RH  029%=      5-min Rain = 0
KSP2 142317Z 06007KT 34/13 A3011 RMK A01 T03370133  RH  029%=      5-min Rain = 0
KSP2 142318Z 06007KT 34/13 A3011 RMK A01 T03360134  RH  029%=      5-min Rain = 0
KSP2 142319Z 05005KT 34/13 A3011 RMK A01 T03350133  RH  030%=      5-min Rain = 0
KSP2 142320Z 08006KT 34/14 A3011 RMK A01 T03350135  RH  030%=      5-min Rain = 0
KSP2 142321Z 09006KT 34/13 A3011 RMK A01 T03350134  RH  030%=      5-min Rain = 0
KSP2 142322Z 06003KT 33/13 A3011 RMK A01 T03340134  RH  030%=      5-min Rain = 0
KSP2 142323Z 02004KT 33/13 A3011 RMK A01 T03340133  RH  030%=      5-min Rain = 0
KSP2 142324Z 01003KT 33/13 A3011 RMK A01 T03330132  RH  030%=      5-min Rain = 0
KSP2 142325Z 35002KT 33/13 A3011 RMK A01 T03320130  RH  029%=      5-min Rain = 0
KSP2 142326Z 33000KT 33/13 A3011 RMK A01 T03320130  RH  029%=      5-min Rain = 0
KSP2 142327Z 01001KT 33/13 A3011 RMK A01 T03330130  RH  029%=      5-min Rain = 0
KSP2 142328Z 03003KT 34/13 A3011 RMK A01 T03350132  RH  029%=      5-min Rain = 0
KSP2 142329Z 03004KT 34/13 A3011 RMK A01 T03360132  RH  029%=      5-min Rain = 0
KSP2 142330Z 02002KT 34/13 A3011 RMK A01 T03350132  RH  029%=      5-min Rain = 0
KSP2 142331Z 03007KT 34/13 A3011 RMK A01 T03350134  RH  030%=      5-min Rain = 0
KSP2 142332Z 04007KT 34/14 A3011 RMK A01 T03350135  RH  030%=      5-min Rain = 0
KSP2 142333Z 05008KT 34/14 A3011 RMK A01 T03350136  RH  030%=      5-min Rain = 0
KSP2 142334Z 06007KT 33/14 A3011 RMK A01 T03330135  RH  030%=      5-min Rain = 0
KSP2 142335Z 05006KT 33/14 A3011 RMK A01 T03320135  RH  030%=      5-min Rain = 0
KSP2 142336Z 06006KT 33/14 A3011 RMK A01 T03310135  RH  031%=      5-min Rain = 0
KSP2 142337Z 07007KT 33/14 A3011 RMK A01 T03300136  RH  031%=      5-min Rain = 0
KSP2 142338Z 08008KT 33/14 A3011 RMK A01 T03320136  RH  031%=      5-min Rain = 0
KSP2 142339Z 08007KT 33/14 A3011 RMK A01 T03320135  RH  030%=      5-min Rain = 0
KSP2 142340Z 07006KT 33/14 A3011 RMK A01 T03300136  RH  031%=      5-min Rain = 0
KSP2 142341Z 05005KT 33/14 A3011 RMK A01 T03310136  RH  031%=      5-min Rain = 0
KSP2 142342Z 03007KT 33/13 A3011 RMK A01 T03320134  RH  030%=      5-min Rain = 0
KSP2 142343Z 03005KT 33/13 A301 RMK A01 T03310134  RH  030%=      5-min Rain = 0
KSP2 142344Z 05004KT 33/13 A301 RMK A01 T03310134  RH  030%=      5-min Rain = 0
KSP2 142345Z 07005KT 33/13 A301 RMK A01 T03300134  RH  030%=      5-min Rain = 0
KSP2 142346Z 08005KT 33/14 A301 RMK A01 T03300135  RH  031%=      5-min Rain = 0
KSP2 142347Z 07004KT 33/13 A301 RMK A01 T03300134  RH  031%=      5-min Rain = 0
KSP2 142348Z 07004KT 33/13 A301 RMK A01 T03280134  RH  031%=      5-min Rain = 0
KSP2 142349Z 09006G11KT 33/14 A301 RMK A01 T03280135  RH  031%=      5-min Rain = 0
KSP2 142350Z 07004KT 33/14 A301 RMK A01 T03280135  RH  031%=      5-min Rain = 0
KSP2 142351Z 06005KT 33/14 A301 RMK A01 T03300135  RH  031%=      5-min Rain = 0
KSP2 142352Z 04006KT 33/14 A301 RMK A01 T03310136  RH  031%=      5-min Rain = 0
KSP2 142353Z 05006KT 33/14 A301 RMK A01 T03310136  RH  031%=      5-min Rain = 0
KSP2 142354Z 05004KT 33/14 A301 RMK A01 T03310137  RH  031%=      5-min Rain = 0
KSP2 142355Z 04004KT 33/14 A301 RMK A01 T03310137  RH  031%=      5-min Rain = 0
KSP2 142356Z 05006KT 33/14 A301 RMK A01 T03330138  RH  031%=      5-min Rain = 0
KSP2 142357Z 06008KT 33/14 A301 RMK A01 T03340139  RH  031%=      5-min Rain = 0
KSP2 142358Z 05007KT 33/14 A301 RMK A01 T03330140  RH  031%=      5-min Rain = 0
KSP2 142359Z 05009KT 33/14 A301 RMK A01 T03310139  RH  031%=      5-min Rain = 0
KSP2 150000Z 06008KT 33/14 A301 RMK A01 T03290139  RH  032%=      5-min Rain = 0
KSP2 150001Z 06007KT 33/14 A301 RMK A01 T03280137  RH  031%=      5-min Rain = 0
KSP2 150002Z 06006KT 33/14 A301 RMK A01 T03270136  RH  031%=      5-min Rain = 0
KSP2 150003Z 06006KT 33/14 A301 RMK A01 T03260137  RH  032%=      5-min Rain = 0
KSP2 150004Z 06005KT 33/14 A301 RMK A01 T03260137  RH  032%=      5-min Rain = 0
KSP2 150005Z 05004KT 33/14 A301 RMK A01 T03280137  RH  032%=      5-min Rain = 0
KSP2 150006Z 06007KT 33/14 A301 RMK A01 T03280139  RH  032%=      5-min Rain = 0
KSP2 150007Z 07008KT 33/14 A301 RMK A01 T03280143  RH  033%=      5-min Rain = 0
KSP2 150008Z 08007KT 33/14 A301 RMK A01 T03280144  RH  033%=      5-min Rain = 0
KSP2 150009Z 07005KT 33/14 A301 RMK A01 T03270143  RH  033%=      5-min Rain = 0
KSP2 150010Z 07006KT 33/14 A301 RMK A01 T03260143  RH  033%=      5-min Rain = 0
KSP2 150011Z 09007KT 33/14 A301 RMK A01 T03250144  RH  033%=      5-min Rain = 0
KSP2 150012Z 07004KT 32/14 A301 RMK A01 T03240144  RH  034%=      5-min Rain = 0
KSP2 150013Z 05006KT 32/14 A301 RMK A01 T03240144  RH  034%=      5-min Rain = 0
KSP2 150014Z 04004KT 32/14 A301 RMK A01 T03230143  RH  034%=      5-min Rain = 0
KSP2 150015Z 04005KT 32/14 A301 RMK A01 T03240144  RH  034%=      5-min Rain = 0
KSP2 150016Z 05006KT 33/14 A301 RMK A01 T03260144  RH  033%=      5-min Rain = 0
KSP2 150017Z 04008KT 33/14 A301 RMK A01 T03260143  RH  033%=      5-min Rain = 0
KSP2 150018Z 05007KT 33/14 A301 RMK A01 T03250143  RH  033%=      5-min Rain = 0
KSP2 150019Z 06005KT 32/14 A301 RMK A01 T03240143  RH  033%=      5-min Rain = 0
KSP2 150020Z 06008KT 32/14 A301 RMK A01 T03240143  RH  033%=      5-min Rain = 0
KSP2 150021Z 06006KT 32/14 A301 RMK A01 T03240142  RH  033%=      5-min Rain = 0
KSP2 150022Z 06005KT 32/14 A301 RMK A01 T03230142  RH  033%=      5-min Rain = 0
KSP2 150023Z 07005KT 32/14 A301 RMK A01 T03230143  RH  034%=      5-min Rain = 0
KSP2 150024Z 06005KT 32/14 A301 RMK A01 T03220142  RH  034%=      5-min Rain = 0
KSP2 150025Z 05006KT 32/14 A301 RMK A01 T03230141  RH  033%=      5-min Rain = 0
KSP2 150026Z 06007KT 32/14 A301 RMK A01 T03230142  RH  033%=      5-min Rain = 0
KSP2 150027Z 06008KT 32/14 A301 RMK A01 T03230143  RH  034%=      5-min Rain = 0
KSP2 150028Z 08007KT 32/14 A301 RMK A01 T03220144  RH  034%=      5-min Rain = 0
KSP2 150029Z 07008KT 32/15 A301 RMK A01 T03210145  RH  035%=      5-min Rain = 0
KSP2 150030Z 08007KT 32/15 A301 RMK A01 T03200146  RH  035%=      5-min Rain = 0
KSP2 150031Z 09009KT 32/15 A301 RMK A01 T03190146  RH  035%=      5-min Rain = 0
KSP2 150032Z 08010KT 32/15 A301 RMK A01 T03190147  RH  035%=      5-min Rain = 0
KSP2 150033Z 08008KT 32/15 A301 RMK A01 T03180146  RH  035%=      5-min Rain = 0
KSP2 150034Z 08008KT 32/15 A301 RMK A01 T03180146  RH  035%=      5-min Rain = 0
KSP2 150035Z 09007KT 32/15 A301 RMK A01 T03170146  RH  035%=      5-min Rain = 0
KSP2 150036Z 10006KT 32/15 A301 RMK A01 T03170146  RH  035%=      5-min Rain = 0
KSP2 150037Z 09005KT 32/15 A301 RMK A01 T03170146  RH  035%=      5-min Rain = 0
KSP2 150038Z 09005KT 32/15 A301 RMK A01 T03170146  RH  036%=      5-min Rain = 0
KSP2 150039Z 08005KT 32/15 A301 RMK A01 T03170146  RH  036%=      5-min Rain = 0
KSP2 150040Z 06005KT 32/15 A301 RMK A01 T03160146  RH  036%=      5-min Rain = 0
KSP2 150041Z 06006KT 32/15 A301 RMK A01 T03160147  RH  036%=      5-min Rain = 0
KSP2 150042Z 07006KT 32/15 A301 RMK A01 T03160147  RH  036%=      5-min Rain = 0
KSP2 150043Z 07007KT 32/15 A301 RMK A01 T03160148  RH  036%=      5-min Rain = 0
KSP2 150044Z 07007KT 32/15 A301 RMK A01 T03150148  RH  036%=      5-min Rain = 0
KSP2 150045Z 07006KT 31/15 A301 RMK A01 T03140149  RH  037%=      5-min Rain = 0
KSP2 150046Z 07006KT 31/15 A301 RMK A01 T03140149  RH  037%=      5-min Rain = 0
KSP2 150047Z 07007KT 31/15 A301 RMK A01 T03130150  RH  037%=      5-min Rain = 0
KSP2 150048Z 06007KT 31/15 A301 RMK A01 T03120149  RH  037%=      5-min Rain = 0
KSP2 150049Z 06007KT 31/15 A301 RMK A01 T03110148  RH  037%=      5-min Rain = 0
KSP2 150050Z 07006KT 31/15 A3011 RMK A01 T03110148  RH  037%=      5-min Rain = 0
KSP2 150051Z 06007KT 31/15 A3011 RMK A01 T03110148  RH  037%=      5-min Rain = 0
KSP2 150052Z 07007KT 31/15 A3011 RMK A01 T03110147  RH  037%=      5-min Rain = 0
KSP2 150053Z 07006KT 31/15 A3011 RMK A01 T03110147  RH  037%=      5-min Rain = 0
KSP2 150054Z 08006KT 31/15 A3011 RMK A01 T03100146  RH  037%=      5-min Rain = 0
KSP2 150055Z 08006KT 31/15 A3011 RMK A01 T03100145  RH  037%=      5-min Rain = 0
KSP2 150056Z 08005KT 31/15 A3011 RMK A01 T03090145  RH  037%=      5-min Rain = 0
KSP2 150057Z 08005KT 31/15 A3011 RMK A01 T03100146  RH  037%=      5-min Rain = 0
KSP2 150058Z 08006KT 31/15 A3011 RMK A01 T03090146  RH  037%=      5-min Rain = 0
KSP2 150059Z 08007KT 31/15 A3011 RMK A01 T03080147  RH  038%=      5-min Rain = 0
KSP2 150100Z 07008KT 31/15 A3011 RMK A01 T03070148  RH  038%=      5-min Rain = 0
KSP2 150101Z 07008KT 31/15 A3011 RMK A01 T03070149  RH  038%=      5-min Rain = 0
KSP2 150102Z 08008KT 31/15 A3011 RMK A01 T03060150  RH  039%=      5-min Rain = 0
KSP2 150103Z 08007KT 31/15 A3011 RMK A01 T03050151  RH  039%=      5-min Rain = 0
KSP2 150104Z 08007KT 30/15 A3011 RMK A01 T03040151  RH  039%=      5-min Rain = 0
KSP2 150105Z 08008KT 30/15 A3011 RMK A01 T03040151  RH  040%=      5-min Rain = 0
KSP2 150106Z 08007KT 30/15 A3011 RMK A01 T03030152  RH  040%=      5-min Rain = 0
KSP2 150107Z 08007KT 30/15 A3011 RMK A01 T03030152  RH  040%=      5-min Rain = 0
KSP2 150108Z 07007KT 30/15 A3011 RMK A01 T03020152  RH  040%=      5-min Rain = 0
KSP2 150109Z 06006KT 30/15 A3011 RMK A01 T03020153  RH  040%=      5-min Rain = 0
KSP2 150110Z 07007KT 30/15 A3011 RMK A01 T03010153  RH  041%=      5-min Rain = 0
KSP2 150111Z 07007KT 30/15 A3011 RMK A01 T03000152  RH  041%=      5-min Rain = 0
KSP2 150112Z 08007KT 30/15 A3011 RMK A01 T03000152  RH  041%=      5-min Rain = 0
KSP2 150113Z 08007KT 30/15 A3011 RMK A01 T02990152  RH  041%=      5-min Rain = 0
KSP2 150114Z 08006KT 30/15 A3011 RMK A01 T02980152  RH  041%=      5-min Rain = 0
KSP2 150115Z 08006KT 30/15 A3011 RMK A01 T02980152  RH  041%=      5-min Rain = 0
KSP2 150116Z 08006KT 30/15 A3011 RMK A01 T02970152  RH  041%=      5-min Rain = 0
KSP2 150117Z 09005KT 30/15 A3011 RMK A01 T02960151  RH  041%=      5-min Rain = 0
KSP2 150118Z 08006KT 30/15 A3012 RMK A01 T02950152  RH  042%=      5-min Rain = 0
KSP2 150119Z 08005KT 30/15 A3012 RMK A01 T02950151  RH  042%=      5-min Rain = 0
KSP2 150120Z 08006KT 29/15 A3012 RMK A01 T02940151  RH  042%=      5-min Rain = 0
KSP2 150121Z 08006KT 29/15 A3012 RMK A01 T02940151  RH  042%=      5-min Rain = 0
KSP2 150122Z 08006KT 29/15 A3012 RMK A01 T02930151  RH  042%=      5-min Rain = 0
KSP2 150123Z 08006KT 29/15 A3012 RMK A01 T02920151  RH  042%=      5-min Rain = 0
KSP2 150124Z 08005KT 29/15 A3012 RMK A01 T02910151  RH  043%=      5-min Rain = 0
KSP2 150125Z 08006KT 29/15 A3012 RMK A01 T02900151  RH  043%=      5-min Rain = 0
KSP2 150126Z 08006KT 29/15 A3012 RMK A01 T02890151  RH  043%=      5-min Rain = 0
KSP2 150127Z 08005KT 29/15 A3012 RMK A01 T02890151  RH  043%=      5-min Rain = 0
KSP2 150128Z 08005KT 29/15 A3012 RMK A01 T02880151  RH  043%=      5-min Rain = 0
KSP2 150129Z 08005KT 29/15 A3012 RMK A01 T02880152  RH  044%=      5-min Rain = 0
KSP2 150130Z 08006KT 29/15 A3012 RMK A01 T02870152  RH  044%=      5-min Rain = 0
KSP2 150131Z 08006KT 29/15 A3012 RMK A01 T02860151  RH  044%=      5-min Rain = 0
KSP2 150132Z 08005KT 29/15 A3012 RMK A01 T02850151  RH  044%=      5-min Rain = 0
KSP2 150133Z 08006KT 28/15 A3012 RMK A01 T02840151  RH  044%=      5-min Rain = 0
KSP2 150134Z 08006KT 28/15 A3012 RMK A01 T02840152  RH  045%=      5-min Rain = 0
KSP2 150135Z 08005KT 28/15 A3012 RMK A01 T02830152  RH  045%=      5-min Rain = 0
KSP2 150136Z 08005KT 28/15 A3012 RMK A01 T02820152  RH  045%=      5-min Rain = 0
KSP2 150137Z 09005KT 28/15 A3012 RMK A01 T02820152  RH  045%=      5-min Rain = 0
KSP2 150138Z 09005KT 28/15 A3012 RMK A01 T02820153  RH  045%=      5-min Rain = 0
KSP2 150139Z 09006KT 28/15 A3012 RMK A01 T02810153  RH  046%=      5-min Rain = 0
KSP2 150140Z 10006KT 28/15 A3012 RMK A01 T02810153  RH  046%=      5-min Rain = 0
KSP2 150141Z 10006KT 28/15 A3012 RMK A01 T02810152  RH  046%=      5-min Rain = 0
KSP2 150142Z 09006KT 28/15 A3012 RMK A01 T02810153  RH  046%=      5-min Rain = 0
KSP2 150143Z 09007KT 28/15 A3012 RMK A01 T02820153  RH  046%=      5-min Rain = 0
KSP2 150144Z 09006KT 28/15 A3012 RMK A01 T02820153  RH  046%=      5-min Rain = 0
KSP2 150145Z 09006KT 28/15 A3012 RMK A01 T02820153  RH  045%=      5-min Rain = 0
KSP2 150146Z 09007KT 28/15 A3012 RMK A01 T02820153  RH  045%=      5-min Rain = 0
KSP2 150147Z 09006KT 28/15 A3012 RMK A01 T02820154  RH  046%=      5-min Rain = 0
KSP2 150148Z 09007KT 28/15 A3012 RMK A01 T02820154  RH  046%=      5-min Rain = 0
KSP2 150149Z 09007KT 28/15 A3012 RMK A01 T02810154  RH  046%=      5-min Rain = 0
KSP2 150150Z 09007KT 28/15 A3012 RMK A01 T02810153  RH  046%=      5-min Rain = 0
KSP2 150151Z 10007KT 28/15 A3012 RMK A01 T02810153  RH  046%=      5-min Rain = 0
KSP2 150152Z 10006KT 28/15 A3012 RMK A01 T02800153  RH  046%=      5-min Rain = 0
KSP2 150153Z 10006KT 28/15 A3012 RMK A01 T02800153  RH  046%=      5-min Rain = 0
KSP2 150154Z 10006KT 28/15 A3013 RMK A01 T02790152  RH  046%=      5-min Rain = 0
KSP2 150155Z 10006KT 28/15 A3013 RMK A01 T02780151  RH  046%=      5-min Rain = 0
KSP2 150156Z 10006KT 28/15 A3013 RMK A01 T02780151  RH  046%=      5-min Rain = 0
KSP2 150157Z 10006KT 28/15 A3013 RMK A01 T02770151  RH  046%=      5-min Rain = 0
KSP2 150158Z 10006KT 28/15 A3013 RMK A01 T02760151  RH  046%=      5-min Rain = 0
KSP2 150159Z 10006KT 28/15 A3013 RMK A01 T02750150  RH  046%=      5-min Rain = 0
KSP2 150200Z 10006KT 27/15 A3013 RMK A01 T02740150  RH  047%=      5-min Rain = 0
KSP2 150201Z 10006KT 27/15 A3013 RMK A01 T02730149  RH  047%=      5-min Rain = 0
KSP2 150202Z 10006KT 27/15 A3013 RMK A01 T02730150  RH  047%=      5-min Rain = 0
KSP2 150203Z 10006KT 27/15 A3013 RMK A01 T02720149  RH  047%=      5-min Rain = 0
KSP2 150204Z 10006KT 27/15 A3013 RMK A01 T02710149  RH  047%=      5-min Rain = 0
KSP2 150205Z 10005KT 27/15 A3013 RMK A01 T02710149  RH  047%=      5-min Rain = 0
KSP2 150206Z 10006KT 27/15 A3013 RMK A01 T02700148  RH  047%=      5-min Rain = 0
KSP2 150207Z 10005KT 27/15 A3014 RMK A01 T02690148  RH  047%=      5-min Rain = 0
KSP2 150208Z 10005KT 27/15 A3014 RMK A01 T02690148  RH  047%=      5-min Rain = 0
KSP2 150209Z 10005KT 27/15 A3014 RMK A01 T02680147  RH  048%=      5-min Rain = 0
KSP2 150210Z 10005KT 27/15 A3014 RMK A01 T02680147  RH  048%=      5-min Rain = 0
KSP2 150211Z 10005KT 27/15 A3014 RMK A01 T02670147  RH  048%=      5-min Rain = 0
KSP2 150212Z 10005KT 27/15 A3014 RMK A01 T02660147  RH  048%=      5-min Rain = 0
KSP2 150213Z 10005KT 27/15 A3014 RMK A01 T02660146  RH  048%=      5-min Rain = 0
KSP2 150214Z 10005KT 27/15 A3014 RMK A01 T02650146  RH  048%=      5-min Rain = 0
KSP2 150215Z 09005KT 26/15 A3014 RMK A01 T02640146  RH  048%=      5-min Rain = 0
KSP2 150216Z 09005KT 26/15 A3014 RMK A01 T02640145  RH  048%=      5-min Rain = 0
KSP2 150217Z 09005KT 26/15 A3014 RMK A01 T02630145  RH  048%=      5-min Rain = 0
KSP2 150218Z 09005KT 26/15 A3014 RMK A01 T02620145  RH  048%=      5-min Rain = 0
KSP2 150219Z 09005KT 26/15 A3014 RMK A01 T02620145  RH  049%=      5-min Rain = 0
KSP2 150220Z 09005KT 26/15 A3014 RMK A01 T02620145  RH  049%=      5-min Rain = 0
KSP2 150221Z 09005KT 26/15 A3014 RMK A01 T02610145  RH  049%=      5-min Rain = 0
KSP2 150222Z 09005KT 26/15 A3014 RMK A01 T02610145  RH  049%=      5-min Rain = 0
KSP2 150223Z 09005KT 26/14 A3014 RMK A01 T02600144  RH  049%=      5-min Rain = 0
KSP2 150224Z 09005KT 26/14 A3014 RMK A01 T02590144  RH  049%=      5-min Rain = 0
KSP2 150225Z 09005KT 26/14 A3014 RMK A01 T02580144  RH  049%=      5-min Rain = 0
KSP2 150226Z 09005KT 26/14 A3014 RMK A01 T02580144  RH  049%=      5-min Rain = 0
KSP2 150227Z 09005KT 26/14 A3014 RMK A01 T02580144  RH  049%=      5-min Rain = 0
KSP2 150228Z 10005KT 26/14 A3014 RMK A01 T02570143  RH  049%=      5-min Rain = 0
KSP2 150229Z 10005KT 26/14 A3014 RMK A01 T02580144  RH  049%=      5-min Rain = 0
KSP2 150230Z 09006KT 26/14 A3014 RMK A01 T02570143  RH  049%=      5-min Rain = 0
KSP2 150231Z 09006KT 26/14 A3014 RMK A01 T02570143  RH  049%=      5-min Rain = 0
KSP2 150232Z 09006KT 26/14 A3014 RMK A01 T02560143  RH  049%=      5-min Rain = 0
KSP2 150233Z 09006KT 26/14 A3014 RMK A01 T02570143  RH  049%=      5-min Rain = 0
KSP2 150234Z 09006KT 26/14 A3014 RMK A01 T02570143  RH  049%=      5-min Rain = 0
KSP2 150235Z 09006KT 26/14 A3014 RMK A01 T02570143  RH  049%=      5-min Rain = 0
KSP2 150236Z 09005KT 26/14 A3014 RMK A01 T02570143  RH  049%=      5-min Rain = 0
KSP2 150237Z 10005KT 26/14 A3014 RMK A01 T02560143  RH  049%=      5-min Rain = 0
KSP2 150238Z 10005KT 26/14 A3014 RMK A01 T02560143  RH  050%=      5-min Rain = 0
KSP2 150239Z 10005KT 26/14 A3014 RMK A01 T02550143  RH  050%=      5-min Rain = 0
KSP2 150240Z 10005KT 26/14 A3014 RMK A01 T02550143  RH  050%=      5-min Rain = 0
KSP2 150241Z 10005KT 26/14 A3015 RMK A01 T02550143  RH  050%=      5-min Rain = 0
KSP2 150242Z 10005KT 26/14 A3015 RMK A01 T02550143  RH  050%=      5-min Rain = 0
KSP2 150243Z 09005KT 26/14 A3015 RMK A01 T02550143  RH  050%=      5-min Rain = 0
KSP2 150244Z 09005KT 26/14 A3015 RMK A01 T02550142  RH  050%=      5-min Rain = 0
KSP2 150245Z 09005KT 25/14 A3015 RMK A01 T02540142  RH  050%=      5-min Rain = 0
KSP2 150246Z 09005KT 25/14 A3015 RMK A01 T02540142  RH  050%=      5-min Rain = 0
KSP2 150247Z 08005KT 25/14 A3015 RMK A01 T02540142  RH  050%=      5-min Rain = 0
KSP2 150248Z 09005KT 26/14 A3015 RMK A01 T02560142  RH  049%=      5-min Rain = 0
KSP2 150249Z 09006KT 26/14 A3015 RMK A01 T02560142  RH  049%=      5-min Rain = 0
KSP2 150250Z 09005KT 26/14 A3015 RMK A01 T02570142  RH  049%=      5-min Rain = 0
KSP2 150251Z 10006KT 26/14 A3015 RMK A01 T02580142  RH  049%=      5-min Rain = 0
KSP2 150252Z 09005KT 26/14 A3015 RMK A01 T02590143  RH  049%=      5-min Rain = 0
KSP2 150253Z 09006KT 26/14 A3015 RMK A01 T02590143  RH  049%=      5-min Rain = 0
KSP2 150254Z 09007KT 26/14 A3015 RMK A01 T02590143  RH  049%=      5-min Rain = 0
KSP2 150255Z 09006KT 26/15 A3015 RMK A01 T02610145  RH  049%=      5-min Rain = 0
KSP2 150256Z 09006KT 26/15 A3015 RMK A01 T02630146  RH  048%=      5-min Rain = 0
KSP2 150257Z 09007KT 26/15 A3015 RMK A01 T02640147  RH  048%=      5-min Rain = 0
KSP2 150258Z 09007KT 27/15 A3015 RMK A01 T02660148  RH  048%=      5-min Rain = 0
KSP2 150259Z 09007KT 27/15 A3015 RMK A01 T02670148  RH  048%=      5-min Rain = 0
KSP2 150300Z 10006KT 27/15 A3015 RMK A01 T02680149  RH  048%=      5-min Rain = 0
KSP2 150301Z 10006KT 27/15 A3015 RMK A01 T02680149  RH  048%=      5-min Rain = 0
KSP2 150302Z 10006KT 27/15 A3015 RMK A01 T02680149  RH  048%=      5-min Rain = 0
KSP2 150303Z 10006KT 27/15 A3015 RMK A01 T02670149  RH  048%=      5-min Rain = 0
KSP2 150304Z 09006KT 27/15 A3015 RMK A01 T02660149  RH  048%=      5-min Rain = 0
KSP2 150305Z 09006KT 27/15 A3015 RMK A01 T02650149  RH  049%=      5-min Rain = 0
KSP2 150306Z 09006KT 27/15 A3015 RMK A01 T02650149  RH  049%=      5-min Rain = 0
KSP2 150307Z 09006KT 26/15 A3016 RMK A01 T02640150  RH  049%=      5-min Rain = 0
KSP2 150308Z 09006KT 26/15 A3016 RMK A01 T02640150  RH  050%=      5-min Rain = 0
KSP2 150309Z 09006KT 26/15 A3016 RMK A01 T02640151  RH  050%=      5-min Rain = 0
KSP2 150310Z 09006KT 26/15 A3016 RMK A01 T02640151  RH  050%=      5-min Rain = 0
KSP2 150311Z 10005KT 26/15 A3016 RMK A01 T02640151  RH  050%=      5-min Rain = 0
KSP2 150312Z 10006KT 26/15 A3016 RMK A01 T02630151  RH  050%=      5-min Rain = 0
KSP2 150313Z 09005KT 26/15 A3016 RMK A01 T02630151  RH  050%=      5-min Rain = 0
KSP2 150314Z 09006KT 26/15 A3016 RMK A01 T02620152  RH  051%=      5-min Rain = 0
KSP2 150315Z 09006KT 26/15 A3016 RMK A01 T02620152  RH  051%=      5-min Rain = 0
KSP2 150316Z 09006KT 26/15 A3016 RMK A01 T02620152  RH  051%=      5-min Rain = 0
KSP2 150317Z 09006KT 26/15 A3016 RMK A01 T02610152  RH  051%=      5-min Rain = 0
KSP2 150318Z 09006KT 26/15 A3016 RMK A01 T02600152  RH  051%=      5-min Rain = 0
KSP2 150319Z 09006KT 26/15 A3016 RMK A01 T02590152  RH  052%=      5-min Rain = 0
KSP2 150320Z 09006KT 26/15 A3016 RMK A01 T02590153  RH  052%=      5-min Rain = 0
KSP2 150321Z 09006KT 26/15 A3016 RMK A01 T02580153  RH  052%=      5-min Rain = 0
KSP2 150322Z 09006KT 26/15 A3016 RMK A01 T02580153  RH  052%=      5-min Rain = 0
KSP2 150323Z 09005KT 26/15 A3016 RMK A01 T02570153  RH  053%=      5-min Rain = 0
KSP2 150324Z 09006KT 26/15 A3016 RMK A01 T02570153  RH  053%=      5-min Rain = 0
KSP2 150325Z 09006KT 26/15 A3016 RMK A01 T02560153  RH  053%=      5-min Rain = 0
KSP2 150326Z 09006KT 26/15 A3016 RMK A01 T02550153  RH  053%=      5-min Rain = 0
KSP2 150327Z 09006KT 26/15 A3016 RMK A01 T02550153  RH  053%=      5-min Rain = 0
KSP2 150328Z 09006KT 26/15 A3016 RMK A01 T02550154  RH  054%=      5-min Rain = 0
KSP2 150329Z 10006KT 25/15 A3016 RMK A01 T02540154  RH  054%=      5-min Rain = 0
KSP2 150330Z 09006KT 25/15 A3016 RMK A01 T02540154  RH  054%=      5-min Rain = 0
KSP2 150331Z 09006KT 25/15 A3016 RMK A01 T02530154  RH  054%=      5-min Rain = 0
KSP2 150332Z 09006KT 25/15 A3017 RMK A01 T02530154  RH  054%=      5-min Rain = 0
KSP2 150333Z 09006KT 25/15 A3017 RMK A01 T02530154  RH  054%=      5-min Rain = 0
KSP2 150334Z 10006KT 25/15 A3017 RMK A01 T02530154  RH  054%=      5-min Rain = 0
KSP2 150335Z 09006KT 25/16 A3017 RMK A01 T02530155  RH  054%=      5-min Rain = 0
KSP2 150336Z 10006KT 25/16 A3017 RMK A01 T02530155  RH  055%=      5-min Rain = 0
KSP2 150337Z 10006KT 25/16 A3017 RMK A01 T02530155  RH  055%=      5-min Rain = 0
KSP2 150338Z 10006KT 25/16 A3017 RMK A01 T02520155  RH  055%=      5-min Rain = 0
KSP2 150339Z 10006KT 25/16 A3017 RMK A01 T02520155  RH  055%=      5-min Rain = 0
KSP2 150340Z 10006KT 25/16 A3017 RMK A01 T02510155  RH  055%=      5-min Rain = 0
KSP2 150341Z 10006KT 25/16 A3017 RMK A01 T02510155  RH  055%=      5-min Rain = 0
KSP2 150342Z 09006KT 25/16 A3017 RMK A01 T02520156  RH  055%=      5-min Rain = 0
KSP2 150343Z 09006KT 25/16 A3017 RMK A01 T02520156  RH  055%=      5-min Rain = 0
KSP2 150344Z 09006KT 25/16 A3017 RMK A01 T02520156  RH  055%=      5-min Rain = 0
KSP2 150345Z 09007KT 25/16 A3017 RMK A01 T02530157  RH  055%=      5-min Rain = 0
KSP2 150346Z 09007KT 25/16 A3017 RMK A01 T02530157  RH  055%=      5-min Rain = 0
KSP2 150347Z 10007KT 25/16 A3017 RMK A01 T02540157  RH  055%=      5-min Rain = 0
KSP2 150348Z 10007KT 26/16 A3017 RMK A01 T02550157  RH  055%=      5-min Rain = 0
KSP2 150349Z 10006KT 26/16 A3017 RMK A01 T02550157  RH  055%=      5-min Rain = 0
KSP2 150350Z 10007KT 26/16 A3017 RMK A01 T02550158  RH  055%=      5-min Rain = 0
KSP2 150351Z 10007KT 26/16 A3017 RMK A01 T02560158  RH  055%=      5-min Rain = 0
KSP2 150352Z 10007KT 26/16 A3017 RMK A01 T02560158  RH  055%=      5-min Rain = 0
KSP2 150353Z 09007KT 26/16 A3017 RMK A01 T02560158  RH  055%=      5-min Rain = 0
KSP2 150354Z 09007KT 26/16 A3017 RMK A01 T02570158  RH  055%=      5-min Rain = 0
KSP2 150355Z 09007KT 26/16 A3017 RMK A01 T02570158  RH  055%=      5-min Rain = 0
KSP2 150356Z 09007KT 26/16 A3017 RMK A01 T02570159  RH  054%=      5-min Rain = 0
KSP2 150357Z 09007KT 26/16 A3017 RMK A01 T02570158  RH  054%=      5-min Rain = 0
KSP2 150358Z 09006KT 26/16 A3018 RMK A01 T02570158  RH  054%=      5-min Rain = 0
KSP2 150359Z 09007KT 26/16 A3018 RMK A01 T02570159  RH  054%=      5-min Rain = 0
KSP2 150400Z 09007KT 26/16 A3018 RMK A01 T02570158  RH  054%=      5-min Rain = 0
KSP2 150401Z 09007KT 26/16 A3018 RMK A01 T02580159  RH  054%=      5-min Rain = 0
KSP2 150402Z 09006KT 26/16 A3018 RMK A01 T02570158  RH  054%=      5-min Rain = 0
KSP2 150403Z 09006KT 26/16 A3018 RMK A01 T02580159  RH  054%=      5-min Rain = 0
KSP2 150404Z 09007KT 26/16 A3018 RMK A01 T02570159  RH  054%=      5-min Rain = 0
KSP2 150405Z 09007KT 26/16 A3018 RMK A01 T02580159  RH  054%=      5-min Rain = 0
KSP2 150406Z 09007KT 26/16 A3018 RMK A01 T02570159  RH  054%=      5-min Rain = 0
KSP2 150407Z 09007KT 26/16 A3018 RMK A01 T02570159  RH  054%=      5-min Rain = 0
KSP2 150408Z 09007KT 26/16 A3018 RMK A01 T02570159  RH  055%=      5-min Rain = 0
KSP2 150409Z 08007KT 26/16 A3018 RMK A01 T02570159  RH  055%=      5-min Rain = 0
KSP2 150410Z 09007KT 26/16 A3018 RMK A01 T02570159  RH  055%=      5-min Rain = 0
KSP2 150411Z 08007KT 26/16 A3018 RMK A01 T02560159  RH  055%=      5-min Rain = 0
KSP2 150412Z 09007KT 26/16 A3018 RMK A01 T02560159  RH  055%=      5-min Rain = 0
KSP2 150413Z 09006KT 26/16 A3018 RMK A01 T02560159  RH  055%=      5-min Rain = 0
KSP2 150414Z 09006KT 26/16 A3018 RMK A01 T02560158  RH  055%=      5-min Rain = 0
KSP2 150415Z 09006KT 26/16 A3018 RMK A01 T02560158  RH  055%=      5-min Rain = 0
KSP2 150416Z 09006KT 26/16 A3018 RMK A01 T02560159  RH  055%=      5-min Rain = 0
KSP2 150417Z 09006KT 26/16 A3018 RMK A01 T02550158  RH  055%=      5-min Rain = 0
KSP2 150418Z 09007KT 26/16 A3018 RMK A01 T02550158  RH  055%=      5-min Rain = 0
KSP2 150419Z 09007KT 25/16 A3018 RMK A01 T02540158  RH  055%=      5-min Rain = 0
KSP2 150420Z 09006KT 25/16 A3018 RMK A01 T02540158  RH  055%=      5-min Rain = 0
KSP2 150421Z 09007KT 25/16 A3018 RMK A01 T02540158  RH  055%=      5-min Rain = 0
KSP2 150422Z 09007KT 25/16 A3018 RMK A01 T02540158  RH  056%=      5-min Rain = 0
KSP2 150423Z 09007KT 25/16 A3018 RMK A01 T02530158  RH  056%=      5-min Rain = 0
KSP2 150424Z 09007KT 25/16 A3018 RMK A01 T02530159  RH  056%=      5-min Rain = 0
KSP2 150425Z 09007KT 25/16 A3018 RMK A01 T02530159  RH  056%=      5-min Rain = 0
KSP2 150426Z 09007KT 25/16 A3018 RMK A01 T02530159  RH  056%=      5-min Rain = 0
KSP2 150427Z 09006KT 25/16 A3018 RMK A01 T02530159  RH  056%=      5-min Rain = 0
KSP2 150428Z 10006KT 25/16 A3018 RMK A01 T02520158  RH  056%=      5-min Rain = 0
KSP2 150429Z 09006KT 25/16 A3018 RMK A01 T02520158  RH  056%=      5-min Rain = 0
KSP2 150430Z 10005KT 25/16 A3018 RMK A01 T02510158  RH  056%=      5-min Rain = 0
KSP2 150431Z 10006KT 25/16 A3018 RMK A01 T02510158  RH  056%=      5-min Rain = 0
KSP2 150432Z 10006KT 25/16 A3018 RMK A01 T02500159  RH  057%=      5-min Rain = 0
KSP2 150433Z 09006KT 25/16 A3018 RMK A01 T02490158  RH  057%=      5-min Rain = 0
KSP2 150434Z 09006KT 25/16 A3018 RMK A01 T02490158  RH  057%=      5-min Rain = 0
KSP2 150435Z 09006KT 25/16 A3018 RMK A01 T02480158  RH  057%=      5-min Rain = 0
KSP2 150436Z 09005KT 25/16 A3018 RMK A01 T02480158  RH  057%=      5-min Rain = 0
KSP2 150437Z 10006KT 25/16 A3018 RMK A01 T02480158  RH  058%=      5-min Rain = 0
KSP2 150438Z 10006KT 25/16 A3018 RMK A01 T02470158  RH  058%=      5-min Rain = 0
KSP2 150439Z 09006KT 25/16 A3018 RMK A01 T02480158  RH  057%=      5-min Rain = 0
KSP2 150440Z 10006KT 25/16 A3018 RMK A01 T02480158  RH  057%=      5-min Rain = 0
KSP2 150441Z 10005KT 25/16 A3018 RMK A01 T02480158  RH  057%=      5-min Rain = 0
KSP2 150442Z 10006KT 25/16 A3018 RMK A01 T02470158  RH  058%=      5-min Rain = 0
KSP2 150443Z 10006KT 25/16 A3018 RMK A01 T02470158  RH  058%=      5-min Rain = 0
KSP2 150444Z 10006KT 25/16 A3018 RMK A01 T02460158  RH  058%=      5-min Rain = 0
KSP2 150445Z 10007KT 25/16 A3018 RMK A01 T02460158  RH  058%=      5-min Rain = 0
KSP2 150446Z 10007KT 25/16 A3018 RMK A01 T02460157  RH  058%=      5-min Rain = 0
KSP2 150447Z 10007KT 25/16 A3018 RMK A01 T02460158  RH  058%=      5-min Rain = 0
KSP2 150448Z 10006KT 25/16 A3018 RMK A01 T02470158  RH  057%=      5-min Rain = 0
KSP2 150449Z 10006KT 25/16 A3018 RMK A01 T02480158  RH  057%=      5-min Rain = 0
KSP2 150450Z 10006KT 25/16 A3018 RMK A01 T02480158  RH  057%=      5-min Rain = 0
KSP2 150451Z 10006KT 25/16 A3018 RMK A01 T02470157  RH  057%=      5-min Rain = 0
KSP2 150452Z 10006KT 25/16 A3018 RMK A01 T02470158  RH  058%=      5-min Rain = 0
KSP2 150453Z 10006KT 25/16 A3018 RMK A01 T02470158  RH  058%=      5-min Rain = 0
KSP2 150454Z 10006KT 25/16 A3018 RMK A01 T02460157  RH  058%=      5-min Rain = 0
KSP2 150455Z 10006KT 25/16 A3018 RMK A01 T02460157  RH  058%=      5-min Rain = 0
KSP2 150456Z 10006KT 25/16 A3018 RMK A01 T02460157  RH  058%=      5-min Rain = 0
KSP2 150457Z 10006KT 25/16 A3018 RMK A01 T02460157  RH  058%=      5-min Rain = 0
KSP2 150458Z 10006KT 25/16 A3018 RMK A01 T02460157  RH  058%=      5-min Rain = 0
KSP2 150459Z 10007KT 25/16 A3018 RMK A01 T02460157  RH  058%=      5-min Rain = 0

Page generated in 0.0707 seconds.